Flight Track Log - Related Links

Times and Time Zones

All times are in EDT time to prevent confusion due to time zone crossing. See the RJA267 flight status page for this flight to view local times or setup timezone preferences in your user account.

Time Position Orientation Groundspeed Altitude Reporting Facility
EDT Latitude Longitude Course Direction KTS MPH feet Rate Location/Type
Wed 07:31:12 PM 31.7120 35.9580 260° West 163 188 4,100  Level FlightAware ADS-B
Wed 07:31:24 PM 31.7100 35.9480 257° West 166 191 4,400 750 Climbing FlightAware ADS-B
Wed 07:31:52 PM 31.7070 35.9200 263° West 196 226 4,600 643 Climbing FlightAware ADS-B
Wed 07:32:20 PM 31.7020 35.8880 260° West 229 264 5,000 769 Climbing FlightAware ADS-B
Wed 07:32:31 PM 31.7010 35.8760 264° West 240 276 5,100 162 Climbing FlightAware ADS-B
Wed 07:32:57 PM 31.6970 35.8480 260° West 240 276 5,100 1,446 Level FlightAware ADS-B
Wed 07:35:00 PM 31.8792 35.6657 320° Northwest  Level Estimated
Wed 07:36:00 PM 31.9680 35.5765 320° Northwest  Level Estimated
Wed 07:36:40 PM 31.8220 35.5190 320° Northwest 345 397 11,100  Level FlightAware ADS-B
Wed 07:37:38 PM 31.8490 35.4240 289° West 350 403 11,500 255 Climbing FlightAware ADS-B
Wed 07:38:14 PM 31.8640 35.3690 288° West 350 403 11,500  Level FlightAware ADS-B
Wed 07:38:50 PM 31.8800 35.3130 289° West 350 403 11,500 1,819 Level FlightAware ADS-B
Wed 07:41:00 PM 32.0718 35.1189 319° Northwest  Level Estimated
Wed 07:42:00 PM 32.1602 35.0290 319° Northwest  Level Estimated
Wed 07:42:18 PM 32.0310 34.8890 319° Northwest 19,600  Level FlightAware ADS-B
Wed 07:43:01 PM 32.0620 34.8030 293° West 399 459 20,200 911 Climbing FlightAware ADS-B
Wed 07:43:37 PM 32.0630 34.8010 301° West 403 464 20,800 1,077 Climbing FlightAware ADS-B
Wed 07:44:19 PM 32.1190 34.6450 293° West 408 470 21,600 1,143 Climbing FlightAware ADS-B
Wed 07:45:01 PM 32.1500 34.5580 293° West 410 472 22,400 750 Climbing FlightAware ADS-B
Wed 07:45:39 PM 32.1750 34.4880 293° West 410 472 22,600 649 Climbing FlightAware ADS-B
Wed 07:46:15 PM 32.2030 34.4080 292° West 417 480 23,200 429 Climbing FlightAware ADS-B
Wed 07:47:03 PM 32.2320 34.3210 292° West 417 480 23,200  Level FlightAware ADS-B
Wed 07:47:39 PM 32.2540 34.2570 292° West 417 480 23,200  Level FlightAware ADS-B
Wed 07:48:27 PM 32.2840 34.1700 292° West 417 480 23,200 1,952 Level FlightAware ADS-B
Wed 07:49:02 PM 32.3330 34.0400 294° West 438 504 25,900 2,571 Climbing FlightAware ADS-B
Wed 07:49:51 PM 32.3730 33.9260 293° West 436 502 26,800 968 Climbing FlightAware ADS-B
Wed 07:50:35 PM 32.4070 33.8290 293° West 439 505 27,400 786 Climbing FlightAware ADS-B
Wed 07:51:15 PM 32.4380 33.7420 293° West 438 504 27,900 769 Climbing FlightAware ADS-B
Wed 07:51:53 PM 32.4670 33.6550 292° West 440 506 28,400 571 Climbing FlightAware ADS-B
Wed 07:52:39 PM 32.5030 33.5520 293° West 448 516 28,700 628 Climbing FlightAware ADS-B
Wed 07:53:19 PM 32.5350 33.4610 293° West 448 516 29,300 837 Climbing FlightAware ADS-B
Wed 07:54:05 PM 32.5700 33.3580 292° West 447 514 29,900 698 Climbing FlightAware ADS-B
Wed 07:54:45 PM 32.6010 33.2700 293° West 449 517 30,300 429 Climbing FlightAware ADS-B
Wed 07:55:29 PM 32.6370 33.1630 292° West 457 526 30,500 357 Climbing FlightAware ADS-B
Wed 07:56:09 PM 32.6680 33.0730 292° West 460 529 30,800 522 Climbing FlightAware ADS-B
Wed 07:57:01 PM 32.7080 32.9540 292° West 458 527 31,300 429 Climbing FlightAware ADS-B
Wed 07:57:33 PM 32.7300 32.8880 292° West 461 531 31,400 391 Climbing FlightAware ADS-B
Wed 07:58:33 PM 32.7820 32.7370 292° West 469 540 31,900 490 Climbing FlightAware ADS-B
Wed 07:59:11 PM 32.8120 32.6460 291° West 466 536 32,200 511 Climbing FlightAware ADS-B
Wed 08:00:07 PM 32.8630 32.5180 295° West 468 539 32,700 551 Climbing FlightAware ADS-B
Wed 08:00:49 PM 32.9200 32.4230 306° West 476 548 33,100 419 Climbing FlightAware ADS-B
Wed 08:01:33 PM 32.9850 32.3410 313° West 482 555 33,300 306 Climbing FlightAware ADS-B
Wed 08:02:27 PM 33.0670 32.2410 314° West 485 558 33,600 316 Climbing FlightAware ADS-B
Wed 08:03:08 PM 33.1360 32.1570 314° West 488 562 33,800 444 Climbing FlightAware ADS-B
Wed 08:03:48 PM 33.1990 32.0800 314° West 486 559 34,200 480 Climbing FlightAware ADS-B
Wed 08:04:23 PM 33.2530 32.0140 314° West 487 560 34,400 228 Climbing FlightAware ADS-B
Wed 08:05:07 PM 33.3100 31.9430 314° West 488 562 34,500 494 Climbing FlightAware ADS-B
Wed 08:05:48 PM 33.3860 31.8510 315° West 485 558 35,100 789 Climbing FlightAware ADS-B
Wed 08:06:23 PM 33.4440 31.7800 314° West 481 554 35,500 711 Climbing FlightAware ADS-B
Wed 08:07:04 PM 33.5070 31.7020 314° West 469 540 36,000 349 Climbing FlightAware ADS-B
Wed 08:07:49 PM 33.5750 31.6180 314° West 465 535 36,000  Level FlightAware ADS-B
Wed 08:08:29 PM 33.6360 31.5420 314° West 466 536 36,000  Level FlightAware ADS-B
Wed 08:09:10 PM 33.6970 31.4670 314° West 465 535 36,000  Level FlightAware ADS-B
Wed 08:09:55 PM 33.7660 31.3800 314° West 466 536 36,000  Level FlightAware ADS-B
Wed 08:10:36 PM 33.8280 31.3040 314° West 466 536 36,000  Level FlightAware ADS-B
Wed 08:11:27 PM 33.8980 31.2140 313° West 466 536 36,000  Level FlightAware ADS-B
Wed 08:12:03 PM 33.9590 31.1390 314° West 469 540 36,000  Level FlightAware ADS-B
Wed 08:12:49 PM 34.0310 31.0490 314° West 471 542 36,000  Level FlightAware ADS-B
Wed 08:13:24 PM 34.0790 30.9880 314° West 472 543 36,000  Level FlightAware ADS-B
Wed 08:14:19 PM 34.1660 30.8790 314° West 480 552 36,000  Level FlightAware ADS-B
Wed 08:15:04 PM 34.2370 30.7910 314° West 480 552 36,000  Level FlightAware ADS-B
Wed 08:15:44 PM 34.3000 30.7140 315° West 473 544 36,000  Level FlightAware ADS-B
Wed 08:16:24 PM 34.3610 30.6380 314° West 471 542 36,000  Level FlightAware ADS-B
Wed 08:17:04 PM 34.4240 30.5600 314° West 469 540 36,000  Level FlightAware ADS-B
Wed 08:17:49 PM 34.4920 30.4750 314° West 467 537 36,000  Level FlightAware ADS-B
Wed 08:18:27 PM 34.5400 30.4130 313° West 467 537 36,000  Level FlightAware ADS-B
Wed 08:19:03 PM 34.5850 30.3540 313° West 467 537 36,000  Level FlightAware ADS-B
Wed 08:19:45 PM 34.6690 30.2530 315° West 36,000  Level FlightAware ADS-B
Wed 08:20:43 PM 34.7480 30.1520 314° West 469 540 36,000  Level FlightAware ADS-B
Wed 08:21:31 PM 34.8090 30.0730 313° West 469 540 36,000  Level FlightAware ADS-B
Wed 08:22:06 PM 34.8830 29.9830 315° West 471 542 36,000  Level FlightAware ADS-B
Wed 08:22:51 PM 34.9470 29.9020 314° West 469 540 36,000  Level FlightAware ADS-B
Wed 08:23:41 PM 35.0260 29.8020 314° West 471 542 36,000  Level FlightAware ADS-B
Wed 08:24:16 PM 35.0790 29.7340 314° West 468 539 36,000  Level FlightAware ADS-B
Wed 08:25:16 PM 35.1580 29.6330 314° West 468 539 36,000  Level FlightAware ADS-B
Wed 08:25:52 PM 35.2030 29.5740 313° West 468 539 36,000  Level FlightAware ADS-B
Wed 08:26:31 PM 35.2780 29.4790 314° West 466 536 36,000  Level FlightAware ADS-B
Wed 08:27:17 PM 35.3480 29.3890 314° West 465 535 36,000  Level FlightAware ADS-B
Wed 08:27:52 PM 35.3960 29.3270 314° West 465 535 36,000  Level FlightAware ADS-B
Wed 08:28:38 PM 35.4670 29.2350 313° West 464 534 36,000  Level FlightAware ADS-B
Wed 08:29:17 PM 35.5250 29.1600 314° West 458 527 36,000  Level FlightAware ADS-B
Wed 08:29:55 PM 35.5750 29.0950 313° West 465 535 36,000  Level FlightAware ADS-B
Wed 08:30:36 PM 35.6430 29.0070 314° West 466 536 36,000  Level FlightAware ADS-B
Wed 08:31:22 PM 35.7110 28.9170 313° West 465 535 36,000  Level FlightAware ADS-B
Wed 08:32:07 PM 35.7780 28.8300 314° West 466 536 36,000  Level FlightAware ADS-B
Wed 08:32:43 PM 35.8310 28.7590 313° West 465 535 36,000  Level FlightAware ADS-B
Wed 08:33:23 PM 35.8910 28.6810 314° West 465 535 36,000  Level FlightAware ADS-B
Wed 08:34:03 PM 35.9490 28.6050 313° West 465 535 36,000  Level FlightAware ADS-B
Wed 08:34:39 PM 36.0020 28.5340 313° West 464 534 36,000  Level FlightAware ADS-B
Wed 08:35:23 PM 36.0660 28.4490 313° West 463 533 36,000  Level FlightAware ADS-B
Wed 08:36:03 PM 36.1250 28.3710 313° West 464 534 36,000  Level FlightAware ADS-B
Wed 08:36:47 PM 36.1900 28.2840 313° West 467 537 36,000  Level FlightAware ADS-B
Wed 08:37:27 PM 36.2480 28.2060 313° West 469 540 36,000  Level FlightAware ADS-B
Wed 08:38:09 PM 36.3090 28.1240 313° West 467 537 36,000  Level FlightAware ADS-B
Wed 08:38:51 PM 36.3740 28.0440 315° West 469 540 36,000  Level FlightAware ADS-B
Wed 08:39:27 PM 36.4310 27.9780 317° Northwest 470 541 36,000  Level FlightAware ADS-B
Wed 08:40:26 PM 36.5170 27.8760 316° Northwest 471 542 36,000  Level FlightAware ADS-B
Wed 08:41:18 PM 36.6010 27.7790 317° Northwest 475 547 36,000  Level FlightAware ADS-B
Wed 08:41:53 PM 36.6630 27.7080 317° Northwest 475 547 36,000  Level FlightAware ADS-B
Wed 08:42:37 PM 36.7340 27.6250 317° Northwest 476 548 36,000  Level FlightAware ADS-B
Wed 08:43:16 PM 36.7960 27.5530 317° Northwest 476 548 36,000  Level FlightAware ADS-B
Wed 08:44:01 PM 36.8700 27.4660 317° Northwest 475 547 36,000  Level FlightAware ADS-B
Wed 08:44:51 PM 36.9500 27.3720 317° Northwest 471 542 36,000  Level FlightAware ADS-B
Wed 08:45:37 PM 37.0230 27.2860 317° Northwest 469 540 36,000  Level FlightAware ADS-B
Wed 08:46:17 PM 37.0870 27.2090 316° Northwest 470 541 36,000  Level FlightAware ADS-B
Wed 08:46:53 PM 37.1450 27.1420 317° Northwest 470 541 36,000  Level FlightAware ADS-B
Wed 08:47:37 PM 37.2130 27.0610 317° Northwest 471 542 36,000  Level FlightAware ADS-B
Wed 08:48:17 PM 37.2760 26.9860 317° Northwest 466 536 36,000  Level FlightAware ADS-B
Wed 08:48:54 PM 37.3330 26.9170 316° Northwest 464 534 36,000  Level FlightAware ADS-B
Wed 08:49:37 PM 37.4000 26.8370 317° Northwest 464 534 36,000  Level FlightAware ADS-B
Wed 08:50:17 PM 37.4670 26.7660 320° Northwest 466 536 36,000  Level FlightAware ADS-B
Wed 08:50:55 PM 37.5290 26.6980 319° Northwest 467 537 36,000  Level FlightAware ADS-B
Wed 08:51:39 PM 37.6020 26.6190 319° Northwest 466 536 36,000  Level FlightAware ADS-B
Wed 08:52:19 PM 37.6670 26.5490 320° Northwest 465 535 36,000  Level FlightAware ADS-B
Wed 08:52:55 PM 37.7240 26.4860 319° Northwest 466 536 36,000  Level FlightAware ADS-B
Wed 08:53:35 PM 37.7900 26.4150 320° Northwest 465 535 36,000  Level FlightAware ADS-B
Wed 08:54:15 PM 37.8550 26.3430 319° Northwest 464 534 36,000  Level FlightAware ADS-B
Wed 08:54:59 PM 37.9270 26.2650 319° Northwest 462 532 36,000  Level FlightAware ADS-B
Wed 08:55:55 PM 38.0180 26.1650 319° Northwest 466 536 36,000  Level FlightAware ADS-B
Wed 08:56:39 PM 38.0890 26.0870 319° Northwest 469 540 36,000  Level FlightAware ADS-B
Wed 08:57:16 PM 38.1480 26.0210 319° Northwest 471 542 36,000  Level FlightAware ADS-B
Wed 08:57:55 PM 38.2150 25.9500 320° Northwest 474 545 36,000  Level FlightAware ADS-B
Wed 08:58:34 PM 38.2840 25.8850 324° Northwest 464 534 36,000  Level FlightAware ADS-B
Wed 08:59:16 PM 38.3560 25.8160 323° Northwest 466 536 36,000  Level FlightAware ADS-B
Wed 08:59:49 PM 38.4120 25.7620 323° Northwest 457 526 36,000  Level FlightAware ADS-B
Wed 09:00:33 PM 38.4860 25.6910 323° Northwest 456 525 36,000  Level FlightAware ADS-B
Wed 09:01:10 PM 38.5380 25.6390 322° Northwest 456 525 36,000  Level FlightAware ADS-B
Wed 09:01:59 PM 38.6310 25.5500 323° Northwest 451 519 36,000  Level FlightAware ADS-B
Wed 09:02:42 PM 38.6950 25.4870 322° Northwest 450 518 36,000  Level FlightAware ADS-B
Wed 09:03:23 PM 38.7680 25.4170 323° Northwest 451 519 36,000  Level FlightAware ADS-B
Wed 09:03:59 PM 38.8270 25.3590 323° Northwest 445 512 36,000  Level FlightAware ADS-B
Wed 09:04:41 PM 38.9000 25.2870 322° Northwest 452 520 36,000  Level FlightAware ADS-B
Wed 09:05:20 PM 38.9630 25.2260 323° Northwest 446 513 36,000  Level FlightAware ADS-B
Wed 09:06:45 PM 39.0910 25.0970 322° Northwest 447 514 36,000  Level FlightAware ADS-B
Wed 09:07:42 PM 39.1900 25.0010 323° Northwest 452 520 36,000  Level FlightAware ADS-B
Wed 09:08:18 PM 39.2400 24.9500 322° Northwest 452 520 36,000  Level FlightAware ADS-B
Wed 09:09:08 PM 39.3440 24.8480 323° Northwest 457 526 36,000  Level FlightAware ADS-B
Wed 09:09:58 PM 39.4160 24.7750 322° Northwest 457 526 36,000  Level FlightAware ADS-B
Wed 09:10:36 PM 39.4920 24.7000 323° Northwest 459 528 36,000  Level FlightAware ADS-B
Wed 09:11:33 PM 39.5740 24.6180 322° Northwest 461 531 36,000  Level FlightAware ADS-B
Wed 09:12:12 PM 39.6530 24.5390 322° Northwest 458 527 36,000  Level FlightAware ADS-B
Wed 09:13:02 PM 39.7370 24.4540 322° Northwest 453 521 36,000  Level FlightAware ADS-B
Wed 09:13:42 PM 39.8030 24.3870 322° Northwest 437 503 36,000  Level FlightAware ADS-B
Wed 09:14:26 PM 39.8720 24.3170 322° Northwest 427 491 36,000  Level FlightAware ADS-B
Wed 09:15:06 PM 39.9350 24.2520 322° Northwest 425 489 36,000  Level FlightAware ADS-B
Wed 09:15:41 PM 39.9900 24.1970 323° Northwest 427 491 36,000  Level FlightAware ADS-B
Wed 09:16:21 PM 40.0510 24.1340 322° Northwest 430 495 36,000  Level FlightAware ADS-B
Wed 09:17:06 PM 40.1220 24.0610 322° Northwest 430 495 36,000  Level FlightAware ADS-B
Wed 09:17:36 PM 40.1690 24.0130 322° Northwest 430 495 36,000  Level FlightAware ADS-B
Wed 09:18:23 PM 40.2450 23.9340 322° Northwest 440 506 36,000  Level FlightAware ADS-B
Wed 09:19:03 PM 40.3090 23.8690 322° Northwest 439 505 36,000  Level FlightAware ADS-B
Wed 09:19:45 PM 40.3770 23.7990 322° Northwest 440 506 36,000  Level FlightAware ADS-B
Wed 09:20:31 PM 40.4510 23.7220 322° Northwest 439 505 36,000  Level FlightAware ADS-B
Wed 09:21:11 PM 40.5140 23.6560 321° Northwest 436 502 36,000  Level FlightAware ADS-B
Wed 09:21:55 PM 40.5840 23.5830 322° Northwest 439 505 36,000  Level FlightAware ADS-B
Wed 09:22:27 PM 40.6350 23.5290 321° Northwest 441 507 36,000  Level FlightAware ADS-B
Wed 09:23:11 PM 40.7040 23.4570 322° Northwest 441 507 36,000  Level FlightAware ADS-B
Wed 09:23:51 PM 40.7680 23.3890 321° Northwest 441 507 36,000  Level FlightAware ADS-B
Wed 09:24:27 PM 40.8260 23.3290 322° Northwest 441 507 36,000  Level FlightAware ADS-B
Wed 09:25:11 PM 40.8960 23.2550 321° Northwest 439 505 36,000  Level FlightAware ADS-B
Wed 09:25:51 PM 40.9600 23.1870 321° Northwest 440 506 36,000  Level FlightAware ADS-B
Wed 09:26:27 PM 41.0180 23.1250 321° Northwest 441 507 36,000  Level FlightAware ADS-B
Wed 09:27:11 PM 41.0880 23.0510 321° Northwest 442 509 36,000  Level FlightAware ADS-B
Wed 09:27:51 PM 41.1510 22.9830 321° Northwest 442 509 36,000  Level FlightAware ADS-B
Wed 09:28:31 PM 41.2150 22.9150 321° Northwest 443 510 36,000  Level FlightAware ADS-B
Wed 09:29:17 PM 41.2890 22.8360 321° Northwest 442 509 36,000  Level FlightAware ADS-B
Wed 09:29:57 PM 41.3610 22.7890 334° Northwest 437 503 36,000  Level FlightAware ADS-B
Wed 09:30:41 PM 41.4430 22.7420 337° Northwest 437 503 36,000  Level FlightAware ADS-B
Wed 09:31:21 PM 41.5190 22.6990 337° Northwest 438 504 36,000  Level FlightAware ADS-B
Wed 09:32:05 PM 41.6010 22.6520 337° Northwest 439 505 36,000  Level FlightAware ADS-B
Wed 09:32:41 PM 41.6660 22.6150 337° Northwest 438 504 36,000  Level FlightAware ADS-B
Wed 09:33:25 PM 41.7490 22.5670 337° Northwest 439 505 36,000  Level FlightAware ADS-B
Wed 09:34:11 PM 41.8350 22.5180 337° Northwest 440 506 36,000  Level FlightAware ADS-B
Wed 09:34:49 PM 41.9060 22.4770 337° Northwest 441 507 36,000  Level FlightAware ADS-B
Wed 09:35:26 PM 41.9750 22.4370 337° Northwest 442 509 36,000  Level FlightAware ADS-B
Wed 09:36:09 PM 42.0550 22.3900 336° Northwest 443 510 36,000  Level FlightAware ADS-B
Wed 09:36:49 PM 42.1320 22.3460 337° Northwest 444 511 36,000  Level FlightAware ADS-B
Wed 09:37:31 PM 42.2120 22.2990 336° Northwest 445 512 36,000  Level FlightAware ADS-B
Wed 09:38:15 PM 42.2950 22.2510 337° Northwest 445 512 36,000  Level FlightAware ADS-B
Wed 09:38:55 PM 42.3730 22.2180 343° North 445 512 36,000  Level FlightAware ADS-B
Wed 09:39:37 PM 42.4570 22.1850 344° North 444 511 36,000  Level FlightAware ADS-B
Wed 09:40:15 PM 42.5300 22.1560 344° North 444 511 36,000  Level FlightAware ADS-B
Wed 09:40:51 PM 42.6020 22.1270 343° North 444 511 36,000  Level FlightAware ADS-B
Wed 09:41:35 PM 42.6870 22.0840 340° North 443 510 36,000  Level FlightAware ADS-B
Wed 09:42:15 PM 42.7560 22.0250 328° Northwest 442 509 36,000  Level FlightAware ADS-B
Wed 09:42:55 PM 42.8150 21.9480 316° Northwest 442 509 36,000  Level FlightAware ADS-B
Wed 09:43:35 PM 42.8710 21.8670 313° West 442 509 36,000  Level FlightAware ADS-B
Wed 09:44:17 PM 42.9300 21.7820 313° West 442 509 36,000  Level FlightAware ADS-B
Wed 09:44:59 PM 42.9890 21.6960 313° West 442 509 36,000  Level FlightAware ADS-B
Wed 09:45:41 PM 43.0490 21.6090 313° West 443 510 36,000  Level FlightAware ADS-B
Wed 09:46:25 PM 43.1110 21.5180 313° West 445 512 36,000  Level FlightAware ADS-B
Wed 09:47:05 PM 43.1660 21.4380 313° West 445 512 36,000  Level FlightAware ADS-B
Wed 09:47:41 PM 43.2160 21.3630 312° West 446 513 36,000  Level FlightAware ADS-B
Wed 09:48:21 PM 43.2730 21.2800 313° West 446 513 36,000  Level FlightAware ADS-B
Wed 09:49:05 PM 43.3350 21.1870 313° West 445 512 36,000  Level FlightAware ADS-B
Wed 09:49:49 PM 43.3960 21.0970 313° West 445 512 36,000  Level FlightAware ADS-B
Wed 09:50:27 PM 43.4470 21.0220 313° West 443 510 36,000  Level FlightAware ADS-B
Wed 09:51:13 PM 43.5130 20.9230 313° West 441 507 36,000  Level FlightAware ADS-B
Wed 09:51:53 PM 43.5690 20.8400 313° West 442 509 36,000  Level FlightAware ADS-B
Wed 09:52:37 PM 43.6300 20.7480 313° West 443 510 36,000  Level FlightAware ADS-B
Wed 09:53:17 PM 43.6840 20.6670 313° West 443 510 36,000  Level FlightAware ADS-B
Wed 09:53:57 PM 43.7400 20.5820 312° West 443 510 36,000  Level FlightAware ADS-B
Wed 09:54:41 PM 43.8010 20.4890 312° West 445 512 36,000  Level FlightAware ADS-B
Wed 09:55:21 PM 43.8570 20.4040 312° West 445 512 36,000  Level FlightAware ADS-B
Wed 09:56:03 PM 43.9140 20.3160 312° West 446 513 36,000  Level FlightAware ADS-B
Wed 09:56:47 PM 43.9760 20.2220 313° West 446 513 36,000  Level FlightAware ADS-B
Wed 09:57:27 PM 44.0320 20.1370 313° West 445 512 36,000  Level FlightAware ADS-B
Wed 09:58:13 PM 44.0940 20.0400 312° West 445 512 36,000  Level FlightAware ADS-B
Wed 09:58:53 PM 44.1490 19.9550 312° West 446 513 36,000  Level FlightAware ADS-B
Wed 09:59:25 PM 44.1920 19.8890 312° West 446 513 36,000  Level FlightAware ADS-B
Wed 10:00:09 PM 44.2540 19.7930 312° West 446 513 36,000  Level FlightAware ADS-B
Wed 10:00:53 PM 44.3140 19.6980 311° West 447 514 36,000  Level FlightAware ADS-B
Wed 10:01:27 PM 44.3620 19.6240 312° West 447 514 36,000  Level FlightAware ADS-B
Wed 10:02:09 PM 44.4190 19.5350 312° West 447 514 36,000  Level FlightAware ADS-B
Wed 10:02:51 PM 44.4780 19.4420 312° West 446 513 36,000  Level FlightAware ADS-B
Wed 10:03:33 PM 44.5340 19.3530 311° West 447 514 36,000  Level FlightAware ADS-B
Wed 10:04:17 PM 44.5950 19.2570 312° West 447 514 36,000  Level FlightAware ADS-B
Wed 10:04:57 PM 44.6490 19.1710 311° West 447 514 36,000  Level FlightAware ADS-B
Wed 10:05:37 PM 44.7030 19.0850 311° West 447 514 36,000  Level FlightAware ADS-B
Wed 10:06:22 PM 44.7660 18.9840 311° West 446 513 36,000  Level FlightAware ADS-B
Wed 10:07:01 PM 44.8180 18.9020 312° West 445 512 36,000  Level FlightAware ADS-B
Wed 10:07:45 PM 44.8780 18.8040 311° West 445 512 36,000  Level FlightAware ADS-B
Wed 10:08:25 PM 44.9310 18.7190 311° West 446 513 36,000  Level FlightAware ADS-B
Wed 10:09:07 PM 44.9900 18.6220 311° West 448 516 36,000  Level FlightAware ADS-B
Wed 10:09:51 PM 45.0500 18.5260 312° West 449 517 36,000  Level FlightAware ADS-B
Wed 10:10:27 PM 45.0990 18.4450 311° West 450 518 36,000  Level FlightAware ADS-B
Wed 10:11:17 PM 45.1530 18.3570 311° West 449 517 36,000  Level FlightAware ADS-B
Wed 10:12:00 PM 45.2090 18.2650 311° West 449 517 36,000  Level FlightAware ADS-B
Wed 10:12:46 PM 45.2760 18.1560 311° West 451 519 36,000  Level FlightAware ADS-B
Wed 10:13:28 PM 45.3430 18.0450 311° West 451 519 36,000  Level FlightAware ADS-B
Wed 10:14:09 PM 45.3990 17.9520 311° West 453 521 36,000  Level FlightAware ADS-B
Wed 10:14:50 PM 45.4530 17.8620 311° West 449 517 36,000  Level FlightAware ADS-B
Wed 10:15:25 PM 45.5020 17.7800 310° West 454 522 36,000  Level FlightAware ADS-B
Wed 10:16:10 PM 45.5640 17.6770 311° West 454 522 36,000  Level FlightAware ADS-B
Wed 10:16:45 PM 45.6120 17.5960 310° West 454 522 36,000  Level FlightAware ADS-B
Wed 10:17:30 PM 45.6720 17.4950 310° West 454 522 36,000  Level FlightAware ADS-B
Wed 10:18:10 PM 45.7270 17.4010 310° West 454 522 36,000  Level FlightAware ADS-B
Wed 10:18:55 PM 45.7880 17.2980 310° West 455 524 36,000  Level FlightAware ADS-B
Wed 10:19:40 PM 45.8480 17.1950 310° West 456 525 36,000  Level FlightAware ADS-B
Wed 10:20:14 PM 45.8960 17.1130 310° West 455 524 36,000  Level FlightAware ADS-B
Wed 10:20:55 PM 45.9490 17.0220 310° West 455 524 36,000  Level FlightAware ADS-B
Wed 10:21:35 PM 46.0030 16.9290 310° West 458 527 36,000  Level FlightAware ADS-B
Wed 10:22:19 PM 46.0630 16.8250 310° West 458 527 36,000  Level FlightAware ADS-B
Wed 10:22:55 PM 46.1120 16.7400 310° West 458 527 36,000  Level FlightAware ADS-B
Wed 10:23:34 PM 46.1640 16.6500 310° West 458 527 36,000  Level FlightAware ADS-B
Wed 10:24:29 PM 46.2420 16.5210 311° West 462 532 36,000  Level FlightAware ADS-B
Wed 10:25:14 PM 46.3180 16.4290 320° Northwest 465 535 36,000  Level FlightAware ADS-B
Wed 10:25:54 PM 46.3820 16.3510 320° Northwest 465 535 36,000  Level FlightAware ADS-B
Wed 10:26:35 PM 46.4490 16.2720 321° Northwest 459 528 36,000  Level FlightAware ADS-B
Wed 10:27:14 PM 46.5170 16.1930 321° Northwest 459 528 36,000  Level FlightAware ADS-B
Wed 10:27:55 PM 46.5840 16.1140 321° Northwest 458 527 36,000  Level FlightAware ADS-B
Wed 10:28:50 PM 46.6760 16.0050 321° Northwest 456 525 36,000  Level FlightAware ADS-B
Wed 10:29:23 PM 46.7290 15.9400 320° Northwest 456 525 36,000  Level FlightAware ADS-B
Wed 10:30:05 PM 46.8000 15.8580 322° Northwest 457 526 36,000  Level FlightAware ADS-B
Wed 10:30:47 PM 46.8690 15.7750 321° Northwest 463 533 36,000  Level FlightAware ADS-B
Wed 10:31:34 PM 46.9480 15.6800 321° Northwest 463 533 36,000  Level FlightAware ADS-B
Wed 10:32:13 PM 47.0120 15.6040 321° Northwest 462 532 36,000  Level FlightAware ADS-B
Wed 10:32:55 PM 47.0810 15.5200 320° Northwest 463 533 36,000  Level FlightAware ADS-B
Wed 10:33:39 PM 47.1530 15.4330 321° Northwest 464 534 36,000  Level FlightAware ADS-B
Wed 10:34:27 PM 47.2320 15.3370 320° Northwest 465 535 36,000  Level FlightAware ADS-B
Wed 10:35:10 PM 47.3040 15.2500 321° Northwest 465 535 36,000  Level FlightAware ADS-B
Wed 10:35:51 PM 47.3710 15.1670 320° Northwest 464 534 36,000  Level FlightAware ADS-B
Wed 10:36:27 PM 47.4310 15.0940 321° Northwest 464 534 36,000  Level FlightAware ADS-B
Wed 10:37:10 PM 47.5020 15.0060 320° Northwest 464 534 36,000  Level FlightAware ADS-B
Wed 10:37:48 PM 47.5630 14.9310 320° Northwest 464 534 36,000  Level FlightAware ADS-B
Wed 10:38:32 PM 47.6370 14.8390 320° Northwest 464 534 36,000  Level FlightAware ADS-B
Wed 10:39:12 PM 47.7040 14.7560 320° Northwest 464 534 36,000  Level FlightAware ADS-B
Wed 10:39:57 PM 47.7770 14.6640 320° Northwest 465 535 36,000  Level FlightAware ADS-B
Wed 10:40:37 PM 47.8440 14.5810 320° Northwest 464 534 36,000  Level FlightAware ADS-B
Wed 10:41:22 PM 47.9170 14.4880 320° Northwest 464 534 36,000  Level FlightAware ADS-B
Wed 10:42:03 PM 47.9830 14.4050 320° Northwest 463 533 36,000  Level FlightAware ADS-B
Wed 10:42:42 PM 48.0470 14.3240 320° Northwest 463 533 36,000  Level FlightAware ADS-B
Wed 10:43:27 PM 48.1210 14.2300 320° Northwest 463 533 36,000  Level FlightAware ADS-B
Wed 10:44:07 PM 48.1860 14.1470 320° Northwest 461 531 36,000  Level FlightAware ADS-B
Wed 10:44:52 PM 48.2570 14.0570 320° Northwest 454 522 36,000  Level FlightAware ADS-B
Wed 10:45:27 PM 48.3160 13.9800 319° Northwest 454 522 36,000  Level FlightAware ADS-B
Wed 10:46:12 PM 48.3870 13.8890 320° Northwest 455 524 36,000  Level FlightAware ADS-B
Wed 10:46:53 PM 48.4540 13.8020 319° Northwest 456 525 36,000  Level FlightAware ADS-B
Wed 10:47:37 PM 48.5260 13.7080 319° Northwest 455 524 36,000  Level FlightAware ADS-B
Wed 10:48:27 PM 48.6060 13.6030 319° Northwest 457 526 36,000 253 Level FlightAware ADS-B
Wed 10:49:12 PM 48.6800 13.5060 319° Northwest 456 525 36,400 565 Climbing FlightAware ADS-B
Wed 10:49:52 PM 48.7440 13.4220 319° Northwest 458 527 36,800 711 Climbing FlightAware ADS-B
Wed 10:50:28 PM 48.8010 13.3480 319° Northwest 454 522 37,300 720 Climbing FlightAware ADS-B
Wed 10:51:07 PM 48.8610 13.2680 319° Northwest 452 520 37,700 553 Climbing FlightAware ADS-B
Wed 10:51:44 PM 48.9200 13.1810 316° Northwest 456 525 38,000 209 Climbing FlightAware ADS-B
Wed 10:52:33 PM 48.9850 13.0610 310° West 454 522 38,000  Level FlightAware ADS-B
Wed 10:53:22 PM 49.0520 12.9400 310° West 455 524 38,000  Level FlightAware ADS-B
Wed 10:54:12 PM 49.1200 12.8130 309° West 455 524 38,000  Level FlightAware ADS-B
Wed 10:54:52 PM 49.1740 12.7150 310° West 456 525 38,000  Level FlightAware ADS-B
Wed 10:55:40 PM 49.2370 12.5980 310° West 456 525 38,000  Level FlightAware ADS-B
Wed 10:56:24 PM 49.2980 12.4850 310° West 458 527 38,000  Level FlightAware ADS-B
Wed 10:57:06 PM 49.3540 12.3790 309° West 458 527 38,000  Level FlightAware ADS-B
Wed 10:57:39 PM 49.3970 12.2970 309° West 454 522 38,000  Level FlightAware ADS-B
Wed 10:58:23 PM 49.4510 12.1810 306° West 453 521 38,000  Level FlightAware ADS-B
Wed 10:59:05 PM 49.5020 12.0710 306° West 451 519 38,000  Level FlightAware ADS-B
Wed 10:59:45 PM 49.5500 11.9660 305° West 451 519 38,000  Level FlightAware ADS-B
Wed 11:00:29 PM 49.6030 11.8520 306° West 451 519 38,000  Level FlightAware ADS-B
Wed 11:01:11 PM 49.6540 11.7400 305° West 451 519 38,000  Level FlightAware ADS-B
Wed 11:01:55 PM 49.7070 11.6240 305° West 450 518 38,000  Level FlightAware ADS-B
Wed 11:02:27 PM 49.7450 11.5390 305° West 450 518 38,000  Level FlightAware ADS-B
Wed 11:03:11 PM 49.7970 11.4240 305° West 451 519 38,000  Level FlightAware ADS-B
Wed 11:03:47 PM 49.8400 11.3290 305° West 451 519 38,000  Level FlightAware ADS-B
Wed 11:04:29 PM 49.8900 11.2170 305° West 454 522 38,000  Level FlightAware ADS-B
Wed 11:05:09 PM 49.9390 11.1090 305° West 457 526 38,000  Level FlightAware ADS-B
Wed 11:05:49 PM 49.9870 11.0000 304° West 458 527 38,000  Level FlightAware ADS-B
Wed 11:06:33 PM 50.0380 10.8850 305° West 459 528 38,000  Level FlightAware ADS-B
Wed 11:07:13 PM 50.0860 10.7760 304° West 459 528 38,000  Level FlightAware ADS-B
Wed 11:07:59 PM 50.1400 10.6530 304° West 457 526 38,000  Level FlightAware ADS-B
Wed 11:08:38 PM 50.1870 10.5470 305° West 455 524 38,000  Level FlightAware ADS-B
Wed 11:09:18 PM 50.2350 10.4370 304° West 454 522 38,000  Level FlightAware ADS-B
Wed 11:09:54 PM 50.2770 10.3380 304° West 454 522 38,000  Level FlightAware ADS-B
Wed 11:10:38 PM 50.3290 10.2190 304° West 453 521 38,000  Level FlightAware ADS-B
Wed 11:11:41 PM 50.4010 10.0510 304° West 453 521 38,000  Level FlightAware ADS-B
Wed 11:12:22 PM 50.4490 9.9400 304° West 454 522 38,000  Level FlightAware ADS-B
Wed 11:13:02 PM 50.4960 9.8300 304° West 456 525 38,000  Level FlightAware ADS-B
Wed 11:13:47 PM 50.5490 9.7050 304° West 458 527 38,000  Level FlightAware ADS-B
Wed 11:14:30 PM 50.6000 9.5840 304° West 459 528 38,000  Level FlightAware ADS-B
Wed 11:15:12 PM 50.6490 9.4660 303° West 460 529 38,000  Level FlightAware ADS-B
Wed 11:15:52 PM 50.6960 9.3540 304° West 461 531 38,000  Level FlightAware ADS-B
Wed 11:16:28 PM 50.7380 9.2530 303° West 462 532 38,000  Level FlightAware ADS-B
Wed 11:17:12 PM 50.7900 9.1290 304° West 462 532 38,000  Level FlightAware ADS-B
Wed 11:17:52 PM 50.8360 9.0170 303° West 464 534 38,000  Level FlightAware ADS-B
Wed 11:18:28 PM 50.8790 8.9130 303° West 464 534 38,000  Level FlightAware ADS-B
Wed 11:19:08 PM 50.9250 8.8000 303° West 464 534 38,000  Level FlightAware ADS-B
Wed 11:19:52 PM 50.9770 8.6730 303° West 462 532 38,000  Level FlightAware ADS-B
Wed 11:20:28 PM 51.0190 8.5700 303° West 463 533 38,000  Level FlightAware ADS-B
Wed 11:21:06 PM 51.0630 8.4610 303° West 464 534 38,000  Level FlightAware ADS-B
Wed 11:21:48 PM 51.1110 8.3410 303° West 464 534 38,000  Level FlightAware ADS-B
Wed 11:22:30 PM 51.1580 8.2230 302° West 460 529 38,000  Level FlightAware ADS-B
Wed 11:23:12 PM 51.2070 8.1000 302° West 463 533 38,000  Level FlightAware ADS-B
Wed 11:23:58 PM 51.2600 7.9680 303° West 464 534 38,000  Level FlightAware ADS-B
Wed 11:24:38 PM 51.3060 7.8500 302° West 464 534 38,000  Level FlightAware ADS-B
Wed 11:25:18 PM 51.3520 7.7340 302° West 464 534 38,000  Level FlightAware ADS-B
Wed 11:25:52 PM 51.3910 7.6350 302° West 463 533 38,000  Level FlightAware ADS-B
Wed 11:26:36 PM 51.4410 7.5060 302° West 464 534 38,000  Level FlightAware ADS-B
Wed 11:27:17 PM 51.4860 7.3900 302° West 465 535 38,000  Level FlightAware ADS-B
Wed 11:28:01 PM 51.5370 7.2580 302° West 467 537 38,000  Level FlightAware ADS-B
Wed 11:28:41 PM 51.5820 7.1420 302° West 466 536 38,000  Level FlightAware ADS-B
Wed 11:29:25 PM 51.6320 7.0090 301° West 466 536 38,000  Level FlightAware ADS-B
Wed 11:30:05 PM 51.6760 6.8930 301° West 468 539 38,000  Level FlightAware ADS-B
Wed 11:30:49 PM 51.7250 6.7640 302° West 467 537 38,000  Level FlightAware ADS-B
Wed 11:31:29 PM 51.7710 6.6410 301° West 465 535 38,000  Level FlightAware ADS-B
Wed 11:32:13 PM 51.8190 6.5150 302° West 464 534 38,000  Level FlightAware ADS-B
Wed 11:32:53 PM 51.8680 6.3950 304° West 463 533 38,000  Level FlightAware ADS-B
Wed 11:33:37 PM 51.9180 6.2670 302° West 464 534 38,000  Level FlightAware ADS-B
Wed 11:34:18 PM 51.9660 6.1460 303° West 465 535 38,000  Level FlightAware ADS-B
Wed 11:35:02 PM 52.0170 6.0150 302° West 468 539 38,000  Level FlightAware ADS-B
Wed 11:35:42 PM 52.0630 5.8970 302° West 470 541 38,000  Level FlightAware ADS-B
Wed 11:36:26 PM 52.1150 5.7650 303° West 470 541 38,000  Level FlightAware ADS-B
Wed 11:36:56 PM 52.1453 5.6713 303° West 468 539 38,000  Level FlightAware UK
Wed 11:37:06 PM 52.1600 5.6450 303° West 469 540 38,000  Level FlightAware ADS-B
Wed 11:37:51 PM 52.2110 5.5130 303° West 470 541 38,000  Level FlightAware ADS-B
Wed 11:37:56 PM 52.2167 5.4937 303° West 468 539 38,000  Level FlightAware UK
Wed 11:38:26 PM 52.2509 5.4032 303° West 470 541 38,000  Level FlightAware UK
Wed 11:38:31 PM 52.2580 5.3920 303° West 472 543 38,000  Level FlightAware ADS-B
Wed 11:39:15 PM 52.3080 5.2590 302° West 471 542 38,000  Level FlightAware ADS-B
Wed 11:39:55 PM 52.3540 5.1370 302° West 470 541 38,000  Level FlightAware ADS-B
Wed 11:39:56 PM 52.3556 5.1320 302° West 472 543 38,000  Level FlightAware UK
Wed 11:40:26 PM 52.3887 5.0400 302° West 474 545 38,000  Level FlightAware UK
Wed 11:40:35 PM 52.3990 5.0170 302° West 469 540 38,000  Level FlightAware ADS-B
Wed 11:41:15 PM 52.4430 4.9010 302° West 467 537 38,000  Level FlightAware ADS-B
Wed 11:41:56 PM 52.4935 4.7698 302° West 466 536 38,000  Level FlightAware UK
Wed 11:42:00 PM 52.4940 4.7650 302° West 466 536 38,000  Level FlightAware ADS-B (KAPA)
Wed 11:42:31 PM 52.5331 4.6617 302° West 468 539 38,000  Level FlightAware UK
Wed 11:42:43 PM 52.5410 4.6360 302° West 467 537 38,000  Level FlightAware ADS-B (KAPA)
Wed 11:43:21 PM 52.5830 4.5220 302° West 466 536 38,000  Level FlightAware ADS-B (KAPA)
Wed 11:43:31 PM 52.5994 4.4795 302° West 466 536 38,000  Level FlightAware UK
Wed 11:44:01 PM 52.6330 4.3885 302° West 464 534 38,000  Level FlightAware UK
Wed 11:44:09 PM 52.6390 4.3700 302° West 468 539 38,000  Level FlightAware ADS-B
Wed 11:44:41 PM 52.6750 4.2720 301° West 470 541 38,000  Level FlightAware ADS-B
Wed 11:45:25 PM 52.7230 4.1400 301° West 471 542 38,000  Level FlightAware ADS-B
Wed 11:46:05 PM 52.7670 4.0170 301° West 471 542 38,000  Level FlightAware ADS-B
Wed 11:46:07 PM 52.7736 4.0018 301° West 470 541 38,000  Level FlightAware UK
Wed 11:46:37 PM 52.8071 3.9091 301° West 466 536 38,000  Level FlightAware UK
Wed 11:46:39 PM 52.8070 3.9080 301° West 470 541 38,000  Level FlightAware ADS-B
Wed 11:47:25 PM 52.8580 3.7650 301° West 471 542 38,000  Level FlightAware ADS-B
Wed 11:48:05 PM 52.9020 3.6420 301° West 471 542 38,000  Level FlightAware ADS-B
Wed 11:48:43 PM 52.9462 3.5181 301° West 468 539 38,000  Level FlightAware UK
Wed 11:48:49 PM 52.9500 3.5050 301° West 469 540 38,000  Level FlightAware ADS-B
Wed 11:49:19 PM 52.9850 3.4075 301° West 464 534 38,000  Level FlightAware UK
Wed 11:49:29 PM 52.9940 3.3810 301° West 468 539 38,000  Level FlightAware ADS-B
Wed 11:50:07 PM 53.0330 3.2590 298° West 471 542 38,000  Level FlightAware ADS-B
Wed 11:50:53 PM 53.0760 3.1130 298° West 472 543 38,000  Level FlightAware ADS-B
Wed 11:50:55 PM 53.0805 3.0992 298° West 468 539 38,000  Level FlightAware UK
Wed 11:51:31 PM 53.1152 2.9829 298° West 468 539 38,000  Level FlightAware UK
Wed 11:51:41 PM 53.1210 2.9630 298° West 470 541 38,000  Level FlightAware ADS-B
Wed 11:52:23 PM 53.1600 2.8280 296° West 469 540 38,000  Level FlightAware ADS-B
Wed 11:53:05 PM 53.2040 2.6800 296° West 468 539 38,000  Level FlightAware ADS-B
Wed 11:53:40 PM 53.2360 2.5670 295° West 466 536 38,000  Level FlightAware ADS-B
Wed 11:54:07 PM 53.2614 2.4808 296° West 466 536 38,000  Level FlightAware ADS-B
Wed 11:54:49 PM 53.3005 2.3453 296° West 468 539 38,000  Level FlightAware ADS-B
Wed 11:55:19 PM 53.3287 2.2469 296° West 469 540 38,000  Level FlightAware ADS-B
Wed 11:55:49 PM 53.3572 2.1469 296° West 469 540 38,000  Level FlightAware ADS-B
Wed 11:56:20 PM 53.3853 2.0483 296° West 469 540 38,000  Level FlightAware ADS-B
Wed 11:56:50 PM 53.4134 1.9486 295° West 469 540 38,000  Level FlightAware ADS-B
Wed 11:57:20 PM 53.4413 1.8495 295° West 469 540 38,000  Level FlightAware ADS-B
Wed 11:57:51 PM 53.4696 1.7488 295° West 468 539 38,000  Level FlightAware ADS-B
Wed 11:58:22 PM 53.4979 1.6474 295° West 468 539 38,000  Level FlightAware ADS-B
Wed 11:58:55 PM 53.5287 1.5367 295° West 469 540 38,000  Level FlightAware ADS-B
Wed 11:59:51 PM 53.5799 1.3516 295° West 471 542 38,000  Level FlightAware ADS-B
Thu 12:00:25 AM 53.6115 1.2375 295° West 462 532 38,000  Level FlightAware UK
Thu 12:00:30 AM 53.6153 1.2226 295° West 471 542 38,000  Level FlightAware ADS-B
Thu 12:01:01 AM 53.6442 1.1174 295° West 462 532 38,000  Level FlightAware UK
Thu 12:01:23 AM 53.6620 1.0500 295° West 473 544 38,000  Level FlightAware ADS-B
Thu 12:01:36 AM 53.6753 1.0025 295° West 474 545 38,000  Level FlightAware ADS-B
Thu 12:02:11 AM 53.7068 0.8857 295° West 474 545 38,000  Level FlightAware ADS-B
Thu 12:02:42 AM 53.7348 0.7819 295° West 474 545 38,000  Level FlightAware ADS-B
Thu 12:03:12 AM 53.7636 0.6753 295° West 464 534 38,000  Level FlightAware UK
Thu 12:03:12 AM 53.7624 0.6790 295° West 474 545 38,000  Level FlightAware ADS-B
Thu 12:03:42 AM 53.7895 0.5777 294° West 474 545 38,000  Level FlightAware ADS-B
Thu 12:04:13 AM 53.8169 0.4743 294° West 474 545 38,000  Level FlightAware ADS-B
Thu 12:04:43 AM 53.8438 0.3726 294° West 473 544 38,000  Level FlightAware ADS-B
Thu 12:05:14 AM 53.8727 0.2701 296° West 472 543 38,000  Level FlightAware ADS-B
Thu 12:05:44 AM 53.9020 0.1689 296° West 472 543 38,000  Level FlightAware ADS-B
Thu 12:06:16 AM 53.9319 0.0651 296° West 473 544 38,000  Level FlightAware ADS-B
Thu 12:06:46 AM 53.9610 -0.0370 296° West 473 544 38,000  Level FlightAware ADS-B
Thu 12:07:24 AM 53.9980 -0.1669 296° West 464 534 38,000  Level FlightAware UK
Thu 12:07:32 AM 54.0040 -0.1889 296° West 472 543 38,000  Level FlightAware ADS-B
Thu 12:08:02 AM 54.0323 -0.2896 296° West 471 542 38,000  Level FlightAware ADS-B
Thu 12:08:53 AM 54.0797 -0.4586 296° West 469 540 38,000  Level FlightAware ADS-B
Thu 12:09:23 AM 54.1077 -0.5589 295° West 470 541 38,000  Level FlightAware ADS-B
Thu 12:09:54 AM 54.1359 -0.6607 295° West 471 542 38,000  Level FlightAware ADS-B
Thu 12:10:24 AM 54.1636 -0.7611 295° West 470 541 38,000  Level FlightAware ADS-B
Thu 12:10:54 AM 54.1918 -0.8636 295° West 468 539 38,000  Level FlightAware ADS-B
Thu 12:11:25 AM 54.2195 -0.9649 295° West 468 539 38,000  Level FlightAware ADS-B
Thu 12:11:56 AM 54.2481 -1.0697 295° West 468 539 38,000  Level FlightAware ADS-B
Thu 12:12:34 AM 54.2827 -1.1971 295° West 468 539 38,000  Level FlightAware ADS-B
Thu 12:13:23 AM 54.3284 -1.3666 295° West 462 532 38,000  Level FlightAware UK
Thu 12:13:23 AM 54.3270 -1.3600 295° West 467 537 38,000  Level FlightAware ADS-B
Thu 12:13:59 AM 54.3603 -1.4863 295° West 462 532 38,000  Level FlightAware UK
Thu 12:14:03 AM 54.3620 -1.4920 295° West 467 537 38,000  Level FlightAware ADS-B
Thu 12:14:38 AM 54.3940 -1.6120 295° West 467 537 38,000  Level FlightAware ADS-B
Thu 12:15:18 AM 54.4270 -1.7360 295° West 467 537 38,000  Level FlightAware ADS-B
Thu 12:16:03 AM 54.4690 -1.8980 294° West 468 539 38,000  Level FlightAware ADS-B
Thu 12:16:43 AM 54.5050 -2.0330 294° West 468 539 38,000  Level FlightAware ADS-B
Thu 12:16:46 AM 54.5095 -2.0520 294° West 460 529 38,000  Level FlightAware UK
Thu 12:17:16 AM 54.5361 -2.1538 294° West 462 532 38,000  Level FlightAware UK
Thu 12:17:28 AM 54.5440 -2.1850 294° West 468 539 38,000  Level FlightAware ADS-B
Thu 12:18:08 AM 54.5800 -2.3230 294° West 467 537 38,000  Level FlightAware ADS-B
Thu 12:18:52 AM 54.6195 -2.4786 294° West 446 513 38,000 133 Level FlightAware UK
Thu 12:18:53 AM 54.6180 -2.4730 294° West 450 518 38,100  Climbing FlightAware ADS-B
Thu 12:19:33 AM 54.6500 -2.6000 294° West 445 512 38,000 -67 Descending FlightAware ADS-B
Thu 12:20:22 AM 54.6936 -2.7715 294° West 444 511 38,000  Level FlightAware UK
Thu 12:20:52 AM 54.7182 -2.8696 294° West 444 511 38,000  Level FlightAware UK
Thu 12:21:28 AM 54.7476 -2.9867 294° West 446 513 38,000  Level FlightAware UK
Thu 12:22:04 AM 54.7769 -3.1043 293° West 444 511 38,000  Level FlightAware UK
Thu 12:22:34 AM 54.8012 -3.2022 293° West 442 509 38,000  Level FlightAware UK
Thu 12:23:10 AM 54.8302 -3.3196 293° West 442 509 38,000  Level FlightAware UK
Thu 12:23:40 AM 54.8542 -3.4176 293° West 444 511 38,000  Level FlightAware UK
Thu 12:24:10 AM 54.8782 -3.5157 293° West 446 513 38,000  Level FlightAware UK
Thu 12:24:46 AM 54.9067 -3.6330 293° West 446 513 38,000  Level FlightAware UK
Thu 12:25:16 AM 54.9305 -3.7314 293° West 446 513 38,000  Level FlightAware UK
Thu 12:25:46 AM 54.9542 -3.8297 293° West 446 513 38,000  Level FlightAware UK
Thu 12:26:16 AM 54.9775 -3.9278 293° West 444 511 38,000  Level FlightAware UK
Thu 12:26:52 AM 55.0054 -4.0445 293° West 444 511 38,000  Level FlightAware UK
Thu 12:27:00 AM 54.9560 -3.8620 293° West 445 512 38,000  Level FlightAware ADS-B
Thu 12:27:52 AM 55.0520 -4.2409 293° West 446 513 38,000  Level FlightAware UK
Thu 12:28:14 AM 55.0550 -4.2510 292° West 437 503 38,000  Level FlightAware ADS-B
Thu 12:28:28 AM 55.0794 -4.3576 292° West 446 513 38,000  Level FlightAware UK
Thu 12:28:58 AM 55.1024 -4.4558 292° West 444 511 38,000  Level FlightAware UK
Thu 12:28:58 AM 55.0880 -4.3940 292° West 436 502 38,000  Level FlightAware ADS-B
Thu 12:29:28 AM 55.1251 -4.5530 292° West 444 511 38,000  Level FlightAware UK
Thu 12:29:58 AM 55.1460 -4.6440 292° West 433 498 38,000  Level FlightAware ADS-B
Thu 12:30:04 AM 55.1518 -4.6688 292° West 442 509 38,000  Level FlightAware UK
Thu 12:30:34 AM 55.1742 -4.7661 292° West 446 513 38,000  Level FlightAware UK
Thu 12:30:43 AM 55.1800 -4.7900 292° West 438 504 38,000  Level FlightAware ADS-B
Thu 12:31:23 AM 55.2110 -4.9230 292° West 442 509 38,000  Level FlightAware ADS-B
Thu 12:32:03 AM 55.2400 -5.0530 292° West 442 509 38,000  Level FlightAware ADS-B
Thu 12:32:04 AM 55.2424 -5.0642 292° West 450 518 38,000  Level FlightAware UK
Thu 12:32:38 AM 55.2670 -5.1720 292° West 441 507 38,000  Level FlightAware ADS-B
Thu 12:32:40 AM 55.2693 -5.1831 292° West 448 516 38,000  Level FlightAware UK
Thu 12:33:10 AM 55.2919 -5.2837 292° West 450 518 38,000  Level FlightAware UK
Thu 12:33:23 AM 55.3000 -5.3180 292° West 443 510 38,000  Level FlightAware ADS-B
Thu 12:34:03 AM 55.3310 -5.4560 292° West 442 509 38,000  Level FlightAware ADS-B
Thu 12:34:38 AM 55.3560 -5.5700 291° West 442 509 38,000  Level FlightAware ADS-B
Thu 12:35:18 AM 55.3860 -5.7060 291° West 442 509 38,000  Level FlightAware ADS-B
Thu 12:35:27 AM 55.3940 -5.7435 291° West 452 520 38,000  Level FlightAware UK
Thu 12:35:58 AM 55.4162 -5.8446 291° West 448 516 38,000  Level FlightAware UK
Thu 12:36:03 AM 55.4190 -5.8560 291° West 443 510 38,000  Level FlightAware ADS-B
Thu 12:36:33 AM 55.4424 -5.9648 291° West 450 518 38,000  Level FlightAware UK
Thu 12:36:43 AM 55.4480 -5.9910 291° West 444 511 38,000  Level FlightAware ADS-B
Thu 12:37:23 AM 55.4770 -6.1250 291° West 445 512 38,000  Level FlightAware ADS-B
Thu 12:38:08 AM 55.5100 -6.2790 291° West 445 512 38,000  Level FlightAware ADS-B
Thu 12:38:09 AM 55.5122 -6.2887 291° West 452 520 38,000  Level FlightAware UK
Thu 12:38:45 AM 55.5382 -6.4112 291° West 452 520 38,000  Level FlightAware UK
Thu 12:38:53 AM 55.5430 -6.4320 291° West 446 513 38,000  Level FlightAware ADS-B
Thu 12:39:23 AM 55.5640 -6.5340 290° West 448 516 38,000  Level FlightAware ADS-B
Thu 12:40:08 AM 55.5970 -6.6880 291° West 448 516 38,000  Level FlightAware ADS-B
Thu 12:40:48 AM 55.6260 -6.8260 291° West 449 517 38,000  Level FlightAware ADS-B
Thu 12:40:57 AM 55.6332 -6.8630 291° West 454 522 38,000  Level FlightAware UK
Thu 12:41:27 AM 55.6546 -6.9666 291° West 454 522 38,000  Level FlightAware UK
Thu 12:41:34 AM 55.6580 -6.9810 291° West 449 517 38,000  Level FlightAware ADS-B
Thu 12:42:13 AM 55.6860 -7.1180 290° West 449 517 38,000  Level FlightAware ADS-B
Thu 12:42:58 AM 55.7180 -7.2740 290° West 449 517 38,000  Level FlightAware ADS-B
Thu 12:43:03 AM 55.7226 -7.2974 290° West 452 520 38,000  Level FlightAware UK
Thu 12:43:33 AM 55.7437 -7.4013 290° West 454 522 38,000  Level FlightAware UK
Thu 12:43:38 AM 55.7450 -7.4100 290° West 450 518 38,000  Level FlightAware ADS-B
Thu 12:44:18 AM 55.7740 -7.5520 290° West 450 518 38,000  Level FlightAware ADS-B
Thu 12:44:53 AM 55.7950 -7.6590 289° West 448 516 38,000  Level FlightAware ADS-B
Thu 12:45:23 AM 55.8190 -7.7770 290° West 446 513 38,000  Level FlightAware ADS-B
Thu 12:46:08 AM 55.8500 -7.9330 290° West 445 512 38,000  Level FlightAware ADS-B
Thu 12:46:09 AM 55.8513 -7.9409 290° West 452 520 38,000  Level FlightAware UK
Thu 12:46:39 AM 55.8716 -8.0445 290° West 454 522 38,000  Level FlightAware UK
Thu 12:46:48 AM 55.8760 -8.0670 290° West 446 513 38,000  Level FlightAware ADS-B
Thu 12:47:28 AM 55.9040 -8.2090 289° West 446 513 38,000  Level FlightAware ADS-B
Thu 12:48:08 AM 55.9310 -8.3480 289° West 445 512 38,000  Level FlightAware ADS-B
Thu 12:48:14 AM 55.9361 -8.3768 289° West 458 527 38,000  Level FlightAware UK
Thu 12:48:44 AM 55.9563 -8.4806 289° West 456 525 38,000  Level FlightAware UK
Thu 12:48:53 AM 55.9600 -8.5030 289° West 443 510 38,000  Level FlightAware ADS-B
Thu 12:49:33 AM 55.9870 -8.6410 289° West 442 509 38,000  Level FlightAware ADS-B
Thu 12:50:13 AM 56.0130 -8.7810 289° West 443 510 38,000  Level FlightAware ADS-B
Thu 12:50:14 AM 56.0150 -8.7914 289° West 452 520 38,000  Level FlightAware UK
Thu 12:50:44 AM 56.0346 -8.8952 289° West 452 520 38,000  Level FlightAware UK
Thu 12:50:58 AM 56.0420 -8.9360 289° West 444 511 38,000  Level FlightAware ADS-B
Thu 12:51:43 AM 56.0710 -9.0930 288° West 445 512 38,000  Level FlightAware ADS-B
Thu 12:52:23 AM 56.0970 -9.2320 289° West 446 513 38,000  Level FlightAware ADS-B
Thu 12:53:08 AM 56.1250 -9.3840 288° West 447 514 38,000  Level FlightAware ADS-B
Thu 12:53:38 AM 56.1450 -9.4920 288° West 444 511 38,000  Level FlightAware ADS-B
Thu 12:54:23 AM 56.1730 -9.6490 288° West 443 510 38,000  Level FlightAware ADS-B
Thu 12:55:00 AM 56.1940 -9.7650 288° West 442 509 38,000  Level FlightAware ADS-B
Thu 12:55:40 AM 56.2210 -9.9190 288° West 443 510 38,000 150 Level FlightAware ADS-B
Thu 12:56:20 AM 56.2460 -10.0620 288° West 447 514 38,200 450 Climbing FlightAware ADS-B
Thu 12:57:00 AM 56.2700 -10.1980 288° West 449 517 38,600 525 Climbing FlightAware ADS-B
Thu 12:57:40 AM 56.2960 -10.3490 287° West 452 520 38,900 444 Climbing FlightAware ADS-B
Thu 12:58:21 AM 56.3210 -10.4930 287° West 455 524 39,200 525 Climbing FlightAware ADS-B
Thu 12:59:00 AM 56.3460 -10.6360 288° West 456 525 39,600 494 Climbing FlightAware ADS-B
Thu 12:59:46 AM 56.3740 -10.8000 287° West 458 527 39,900 279 Climbing FlightAware ADS-B
Thu 01:00:26 AM 56.3990 -10.9530 287° West 461 531 40,000 73 Climbing FlightAware ADS-B
Thu 01:01:08 AM 56.4240 -11.0990 287° West 459 528 40,000  Level FlightAware ADS-B
Thu 01:01:52 AM 56.4510 -11.2660 286° West 453 521 40,000  Level FlightAware ADS-B
Thu 01:02:27 AM 56.4720 -11.3920 287° West 453 521 40,000  Level FlightAware ADS-B
Thu 01:03:08 AM 56.4960 -11.5400 286° West 454 522 40,000  Level FlightAware ADS-B
Thu 01:03:47 AM 56.5190 -11.6820 286° West 454 522 40,000  Level FlightAware ADS-B
Thu 01:04:33 AM 56.5450 -11.8480 286° West 450 518 40,000  Level FlightAware ADS-B
Thu 01:05:12 AM 56.5630 -11.9660 286° West 450 518 40,000  Level FlightAware ADS-B
Thu 01:06:07 AM 56.6000 -12.1970 286° West 450 518 40,000  Level FlightAware ADS-B
Thu 01:06:53 AM 56.6260 -12.3630 286° West 451 519 40,000  Level FlightAware ADS-B
Thu 01:07:27 AM 56.6450 -12.4900 285° West 452 520 40,000  Level FlightAware ADS-B
Thu 01:08:13 AM 56.6650 -12.6310 285° West 452 520 40,000  Level FlightAware ADS-B
Thu 01:08:49 AM 56.6800 -12.7440 284° West 452 520 40,000  Level FlightAware ADS-B
Thu 01:09:26 AM 56.6960 -12.8600 284° West 452 520 40,000  Level FlightAware ADS-B
Thu 01:10:02 AM 56.7120 -12.9730 285° West 452 520 40,000  Level FlightAware ADS-B
Thu 01:10:50 AM 56.7320 -13.1240 284° West 452 520 40,000  Level FlightAware ADS-B
Thu 01:11:34 AM 56.7510 -13.2620 284° West 452 520 40,000  Level FlightAware ADS-B
Thu 01:11:58 AM 56.7610 -13.3380 284° West 452 520 40,000  Level FlightAware ADS-B
Thu 01:12:46 AM 56.7820 -13.4890 284° West 452 520 40,000  Level FlightAware ADS-B
Thu 01:13:22 AM 56.7970 -13.6020 284° West 452 520 40,000  Level FlightAware ADS-B
Thu 01:14:22 AM 56.8230 -13.7910 284° West 452 520 40,000  Level FlightAware ADS-B
Thu 01:14:58 AM 56.8390 -13.9050 284° West 452 520 40,000  Level FlightAware ADS-B
Thu 01:15:47 AM 56.8600 -14.0590 284° West 452 520 40,000  Level FlightAware ADS-B
Thu 01:16:23 AM 56.8750 -14.1730 284° West 452 520 40,000  Level FlightAware ADS-B
Thu 01:17:11 AM 56.8960 -14.3250 284° West 452 520 40,000  Level FlightAware ADS-B
Thu 01:19:00 AM 56.9398 -14.7135 282° West  Level Estimated
Thu 01:20:00 AM 56.9634 -14.9278 282° West  Level Estimated
Thu 01:21:00 AM 56.9866 -15.1423 281° West  Level Estimated
Thu 01:22:00 AM 57.0098 -15.3602 281° West  Level Estimated
Thu 01:23:00 AM 57.0326 -15.5783 281° West  Level Estimated
Thu 01:24:00 AM 57.0551 -15.7968 281° West  Level Estimated
Thu 01:25:00 AM 57.0771 -16.0154 281° West  Level Estimated
Thu 01:26:00 AM 57.0988 -16.2343 280° West  Level Estimated
Thu 01:27:00 AM 57.1201 -16.4535 280° West  Level Estimated
Thu 01:28:00 AM 57.1410 -16.6730 280° West  Level Estimated
Thu 01:29:00 AM 57.1615 -16.8926 280° West  Level Estimated
Thu 01:30:00 AM 57.1816 -17.1125 280° West  Level Estimated
Thu 01:31:00 AM 57.2014 -17.3327 279° West  Level Estimated
Thu 01:32:00 AM 57.2208 -17.5531 279° West  Level Estimated
Thu 01:33:00 AM 57.2397 -17.7737 279° West  Level Estimated
Thu 01:34:00 AM 57.2583 -17.9945 279° West  Level Estimated
Thu 01:35:00 AM 57.2765 -18.2156 279° West  Level Estimated
Thu 01:36:00 AM 57.2943 -18.4369 279° West  Level Estimated
Thu 01:37:00 AM 57.3118 -18.6584 278° West  Level Estimated
Thu 01:38:00 AM 57.3288 -18.8801 278° West  Level Estimated
Thu 01:39:00 AM 57.3455 -19.1020 278° West  Level Estimated
Thu 01:40:00 AM 57.3617 -19.3241 278° West  Level Estimated
Thu 01:41:00 AM 57.3776 -19.5464 278° West  Level Estimated
Thu 01:42:00 AM 57.3931 -19.7688 277° West  Level Estimated
Thu 01:42:00 AM 58.0000 -20.0000 285° West 444 511 40,000  Level ETMS Enhanced Traffic Management System
Thu 01:43:00 AM 57.4081 -19.9915 277° West  Level Estimated
Thu 01:44:00 AM 57.4228 -20.2144 277° West  Level Estimated
Thu 01:45:00 AM 57.4371 -20.4374 277° West  Level Estimated
Thu 01:46:00 AM 57.4510 -20.6606 277° West  Level Estimated
Thu 01:47:00 AM 57.4645 -20.8840 277° West  Level Estimated
Thu 01:48:00 AM 58.1856 -21.3584 284° West 444 511 40,000  Level FlightAware Transoceanic
Thu 01:49:00 AM 58.2152 -21.5861 284° West 444 511 40,000  Level FlightAware Transoceanic
Thu 01:50:00 AM 58.2443 -21.8142 284° West 444 511 40,000  Level FlightAware Transoceanic
Thu 01:51:00 AM 58.2730 -22.0427 283° West 444 511 40,000  Level FlightAware Transoceanic
Thu 01:52:00 AM 58.3013 -22.2716 283° West 444 511 40,000  Level FlightAware Transoceanic
Thu 01:53:00 AM 58.3292 -22.5008 283° West 444 511 40,000  Level FlightAware Transoceanic
Thu 01:54:00 AM 58.3567 -22.7304 283° West 444 511 40,000  Level FlightAware Transoceanic
Thu 01:55:00 AM 58.3838 -22.9604 283° West 444 511 40,000  Level FlightAware Transoceanic
Thu 01:56:00 AM 58.4105 -23.1907 282° West 444 511 40,000  Level FlightAware Transoceanic
Thu 01:57:00 AM 58.4367 -23.4213 282° West 444 511 40,000  Level FlightAware Transoceanic
Thu 01:58:00 AM 58.4626 -23.6523 282° West 444 511 40,000  Level FlightAware Transoceanic
Thu 01:59:00 AM 58.4880 -23.8836 282° West 444 511 40,000  Level FlightAware Transoceanic
Thu 02:00:00 AM 58.5130 -24.1153 282° West 444 511 40,000  Level FlightAware Transoceanic
Thu 02:01:00 AM 58.5376 -24.3473 281° West 444 511 40,000  Level FlightAware Transoceanic
Thu 02:02:00 AM 58.5617 -24.5796 281° West 444 511 40,000  Level FlightAware Transoceanic
Thu 02:03:00 AM 58.5855 -24.8122 281° West 444 511 40,000  Level FlightAware Transoceanic
Thu 02:04:00 AM 58.6088 -25.0451 281° West 444 511 40,000  Level FlightAware Transoceanic
Thu 02:05:00 AM 58.6317 -25.2784 281° West 444 511 40,000  Level FlightAware Transoceanic
Thu 02:06:00 AM 58.6542 -25.5119 280° West 444 511 40,000  Level FlightAware Transoceanic
Thu 02:07:00 AM 58.6763 -25.7458 280° West 444 511 40,000  Level FlightAware Transoceanic
Thu 02:08:00 AM 58.6979 -25.9799 280° West 444 511 40,000  Level FlightAware Transoceanic
Thu 02:09:00 AM 58.7191 -26.2143 280° West 444 511 40,000  Level FlightAware Transoceanic
Thu 02:10:00 AM 58.7399 -26.4490 280° West 444 511 40,000  Level FlightAware Transoceanic
Thu 02:11:00 AM 58.7603 -26.6840 279° West 444 511 40,000  Level FlightAware Transoceanic
Thu 02:12:00 AM 58.7802 -26.9193 279° West 444 511 40,000  Level FlightAware Transoceanic
Thu 02:13:00 AM 58.7997 -27.1548 279° West 444 511 40,000  Level FlightAware Transoceanic
Thu 02:14:00 AM 58.8188 -27.3906 279° West 444 511 40,000  Level FlightAware Transoceanic
Thu 02:15:00 AM 58.8374 -27.6266 279° West 444 511 40,000  Level FlightAware Transoceanic
Thu 02:16:00 AM 58.8556 -27.8629 278° West 444 511 40,000  Level FlightAware Transoceanic
Thu 02:17:00 AM 58.8734 -28.0995 278° West 444 511 40,000  Level FlightAware Transoceanic
Thu 02:18:00 AM 58.8908 -28.3363 278° West 444 511 40,000  Level FlightAware Transoceanic
Thu 02:19:00 AM 58.9077 -28.5733 278° West 444 511 40,000  Level FlightAware Transoceanic
Thu 02:20:00 AM 58.9241 -28.8105 278° West 444 511 40,000  Level FlightAware Transoceanic
Thu 02:21:00 AM 58.9402 -29.0480 277° West 444 511 40,000  Level FlightAware Transoceanic
Thu 02:22:00 AM 58.9558 -29.2857 277° West 444 511 40,000  Level FlightAware Transoceanic
Thu 02:23:00 AM 58.9710 -29.5236 277° West 444 511 40,000  Level FlightAware Transoceanic
Thu 02:24:00 AM 58.9857 -29.7617 277° West 444 511 40,000  Level FlightAware Transoceanic
Thu 02:25:00 AM 58.9997 -29.9948 277° West  Level FlightAware Approximate
Thu 02:26:00 AM 59.0134 -30.2281 277° West  Level FlightAware Approximate
Thu 02:27:00 AM 59.0084 -30.2238 274° West  Level FlightAware Approximate
Thu 02:28:00 AM 59.0169 -30.4581 274° West  Level FlightAware Approximate
Thu 02:29:00 AM 59.0249 -30.6924 274° West  Level FlightAware Approximate
Thu 02:30:00 AM 59.0325 -30.9269 274° West  Level FlightAware Approximate
Thu 02:31:00 AM 59.0396 -31.1615 273° West  Level FlightAware Approximate
Thu 02:32:00 AM 59.0463 -31.3962 273° West  Level FlightAware Approximate
Thu 02:33:00 AM 59.0527 -31.6310 273° West  Level FlightAware Approximate
Thu 02:34:00 AM 59.0585 -31.8659 273° West  Level FlightAware Approximate
Thu 02:35:00 AM 59.0640 -32.1008 273° West  Level FlightAware Approximate
Thu 02:36:00 AM 59.0690 -32.3358 272° West  Level FlightAware Approximate
Thu 02:37:00 AM 59.0736 -32.5709 272° West  Level FlightAware Approximate
Thu 02:38:00 AM 59.0778 -32.8060 272° West  Level FlightAware Approximate
Thu 02:39:00 AM 59.0816 -33.0412 272° West  Level FlightAware Approximate
Thu 02:40:00 AM 59.0849 -33.2765 272° West  Level FlightAware Approximate
Thu 02:41:00 AM 59.0878 -33.5117 271° West  Level FlightAware Approximate
Thu 02:42:00 AM 59.0903 -33.7471 271° West  Level FlightAware Approximate
Thu 02:43:00 AM 59.0924 -33.9824 271° West  Level FlightAware Approximate
Thu 02:44:00 AM 59.0940 -34.2178 271° West  Level FlightAware Approximate
Thu 02:45:00 AM 59.0952 -34.4532 271° West  Level FlightAware Approximate
Thu 02:46:00 AM 59.0960 -34.6886 270° West  Level FlightAware Approximate
Thu 02:47:00 AM 59.0963 -34.9240 270° West  Level FlightAware Approximate
Thu 02:48:00 AM 59.0962 -35.1594 270° West  Level FlightAware Approximate
Thu 02:49:00 AM 59.0957 -35.3949 270° West  Level FlightAware Approximate
Thu 02:50:00 AM 59.0948 -35.6302 270° West  Level FlightAware Approximate
Thu 02:51:00 AM 59.0935 -35.8656 269° West  Level FlightAware Approximate
Thu 02:52:00 AM 59.0917 -36.1010 269° West  Level FlightAware Approximate
Thu 02:53:00 AM 59.0895 -36.3363 269° West  Level FlightAware Approximate
Thu 02:54:00 AM 59.0868 -36.5717 269° West  Level FlightAware Approximate
Thu 02:55:00 AM 59.0838 -36.8069 269° West  Level FlightAware Approximate
Thu 02:56:00 AM 59.0803 -37.0421 268° West  Level FlightAware Approximate
Thu 02:57:00 AM 59.0764 -37.2773 268° West  Level FlightAware Approximate
Thu 02:58:00 AM 59.0721 -37.5124 268° West  Level FlightAware Approximate
Thu 02:59:00 AM 59.0673 -37.7475 268° West  Level FlightAware Approximate
Thu 03:00:00 AM 59.0621 -37.9825 268° West  Level FlightAware Approximate
Thu 03:01:00 AM 59.0565 -38.2174 267° West  Level FlightAware Approximate
Thu 03:02:00 AM 59.0505 -38.4522 267° West  Level FlightAware Approximate
Thu 03:03:00 AM 59.0440 -38.6870 267° West  Level FlightAware Approximate
Thu 03:04:00 AM 59.0371 -38.9216 267° West  Level FlightAware Approximate
Thu 03:05:00 AM 59.0298 -39.1562 267° West  Level FlightAware Approximate
Thu 03:06:00 AM 59.0221 -39.3907 266° West  Level FlightAware Approximate
Thu 03:07:00 AM 59.0139 -39.6250 266° West  Level FlightAware Approximate
Thu 03:08:00 AM 59.0054 -39.8592 266° West  Level FlightAware Approximate
Thu 03:09:00 AM 58.9941 -40.0929 263° West  Level FlightAware Approximate
Thu 03:10:00 AM 58.9790 -40.3257 263° West  Level FlightAware Approximate
Thu 03:11:00 AM 58.9635 -40.5583 263° West  Level FlightAware Approximate
Thu 03:12:00 AM 58.9476 -40.7907 263° West  Level FlightAware Approximate
Thu 03:13:00 AM 58.9312 -41.0229 262° West  Level FlightAware Approximate
Thu 03:14:00 AM 58.9144 -41.2549 262° West  Level FlightAware Approximate
Thu 03:15:00 AM 58.8974 -41.4867 262° West  Level FlightAware Approximate
Thu 03:16:00 AM 58.8809 -41.7185 262° West  Level FlightAware Approximate
Thu 03:17:00 AM 58.8640 -41.9501 262° West  Level FlightAware Approximate
Thu 03:18:00 AM 58.8467 -42.1815 262° West  Level FlightAware Approximate
Thu 03:19:00 AM 58.8290 -42.4126 262° West  Level FlightAware Approximate
Thu 03:20:00 AM 58.8108 -42.6435 261° West  Level FlightAware Approximate
Thu 03:21:00 AM 58.7923 -42.8742 261° West  Level FlightAware Approximate
Thu 03:22:00 AM 58.7733 -43.1046 261° West  Level FlightAware Approximate
Thu 03:23:00 AM 58.7539 -43.3347 261° West  Level FlightAware Approximate
Thu 03:24:00 AM 58.7341 -43.5646 261° West  Level FlightAware Approximate
Thu 03:25:00 AM 58.7139 -43.7942 260° West  Level FlightAware Approximate
Thu 03:26:00 AM 58.6933 -44.0236 260° West  Level FlightAware Approximate
Thu 03:27:00 AM 58.6723 -44.2527 260° West  Level FlightAware Approximate
Thu 03:28:00 AM 58.6509 -44.4815 260° West  Level FlightAware Approximate
Thu 03:29:00 AM 58.6291 -44.7100 260° West  Level FlightAware Approximate
Thu 03:30:00 AM 58.6068 -44.9382 260° West  Level FlightAware Approximate
Thu 03:31:00 AM 58.5842 -45.1661 259° West  Level FlightAware Approximate
Thu 03:32:00 AM 58.5612 -45.3938 259° West  Level FlightAware Approximate
Thu 03:33:00 AM 58.5377 -45.6211 259° West  Level FlightAware Approximate
Thu 03:34:00 AM 58.5139 -45.8482 259° West  Level FlightAware Approximate
Thu 03:35:00 AM 58.4897 -46.0749 259° West  Level FlightAware Approximate
Thu 03:36:00 AM 58.4650 -46.3013 258° West  Level FlightAware Approximate
Thu 03:37:00 AM 58.4400 -46.5274 258° West  Level FlightAware Approximate
Thu 03:38:00 AM 58.4145 -46.7531 258° West  Level FlightAware Approximate
Thu 03:39:00 AM 58.3887 -46.9786 258° West  Level FlightAware Approximate
Thu 03:40:00 AM 58.3625 -47.2037 258° West  Level FlightAware Approximate
Thu 03:41:00 AM 58.3359 -47.4284 257° West  Level FlightAware Approximate
Thu 03:42:00 AM 58.3089 -47.6529 257° West  Level FlightAware Approximate
Thu 03:43:00 AM 58.2815 -47.8769 257° West  Level FlightAware Approximate
Thu 03:44:00 AM 58.2537 -48.1007 257° West  Level FlightAware Approximate
Thu 03:45:00 AM 58.2255 -48.3241 257° West  Level FlightAware Approximate
Thu 03:46:00 AM 58.1969 -48.5471 256° West  Level FlightAware Approximate
Thu 03:47:00 AM 58.1679 -48.7697 256° West  Level FlightAware Approximate
Thu 03:48:00 AM 58.1386 -48.9920 256° West  Level FlightAware Approximate
Thu 03:49:00 AM 58.1088 -49.2140 256° West  Level FlightAware Approximate
Thu 03:50:00 AM 58.0787 -49.4355 256° West  Level FlightAware Approximate
Thu 03:51:00 AM 58.0482 -49.6567 255° West  Level FlightAware Approximate
Thu 03:52:00 AM 58.0173 -49.8775 255° West  Level FlightAware Approximate
Thu 03:53:00 AM 57.9837 -50.0966 252° West  Level FlightAware Approximate
Thu 03:54:00 AM 57.9467 -50.3136 252° West  Level FlightAware Approximate
Thu 03:55:00 AM 57.9094 -50.5302 252° West  Level FlightAware Approximate
Thu 03:56:00 AM 57.8717 -50.7464 252° West  Level FlightAware Approximate
Thu 03:57:00 AM 57.8337 -50.9620 252° West  Level FlightAware Approximate
Thu 03:58:00 AM 57.7952 -51.1773 252° West  Level FlightAware Approximate
Thu 03:59:00 AM 57.7564 -51.3920 251° West  Level FlightAware Approximate
Thu 04:00:00 AM 57.7173 -51.6063 251° West  Level FlightAware Approximate
Thu 04:01:00 AM 57.6778 -51.8202 251° West  Level FlightAware Approximate
Thu 04:02:00 AM 57.6379 -52.0335 251° West  Level FlightAware Approximate
Thu 04:03:00 AM 57.5977 -52.2464 251° West  Level FlightAware Approximate
Thu 04:04:00 AM 57.5571 -52.4589 250° West  Level FlightAware Approximate
Thu 04:05:00 AM 57.5162 -52.6708 250° West  Level FlightAware Approximate
Thu 04:06:00 AM 57.4748 -52.8823 250° West  Level FlightAware Approximate
Thu 04:07:00 AM 57.4332 -53.0933 250° West  Level FlightAware Approximate
Thu 04:08:00 AM 57.3912 -53.3038 250° West  Level FlightAware Approximate
Thu 04:09:00 AM 57.3489 -53.5138 250° West  Level FlightAware Approximate
Thu 04:10:00 AM 57.3061 -53.7234 249° West  Level FlightAware Approximate
Thu 04:10:03 AM 57.0333 -54.9667 243° Southwest 210 242 40,000  Level Gander Center
Thu 04:11:00 AM 57.2631 -53.9324 249° West  Level FlightAware Approximate
Thu 04:11:03 AM 57.0000 -55.1833 254° West 440 506 40,000  Level Gander Center
Thu 04:12:00 AM 57.2197 -54.1410 249° West  Level FlightAware Approximate
Thu 04:12:03 AM 56.9333 -55.4000 241° Southwest 460 529 40,000  Level Gander Center
Thu 04:13:00 AM 57.1760 -54.3490 249° West  Level FlightAware Approximate
Thu 04:13:03 AM 56.8833 -55.6000 245° Southwest 440 506 40,000  Level Gander Center
Thu 04:14:00 AM 57.1218 -54.5473 243° Southwest  Level Estimated
Thu 04:14:03 AM 56.8167 -55.7833 236° Southwest 440 506 40,000  Level Gander Center
Thu 04:15:00 AM 57.0673 -54.7450 243° Southwest  Level Estimated
Thu 04:15:03 AM 56.7500 -55.9833 239° Southwest 430 495 40,000  Level Gander Center
Thu 04:16:03 AM 56.7000 -56.2000 247° West 440 506 40,000  Level Gander Center
Thu 04:17:03 AM 56.6500 -56.4167 247° West 460 529 40,000  Level Gander Center
Thu 04:18:03 AM 56.5833 -56.6167 239° Southwest 450 518 40,000  Level Gander Center
Thu 04:19:03 AM 56.5167 -56.8000 237° Southwest 440 506 40,000  Level Gander Center
Thu 04:20:03 AM 56.4500 -57.0167 241° Southwest 440 506 40,000  Level Gander Center
Thu 04:21:03 AM 56.4000 -57.2000 244° Southwest 450 518 40,000  Level Gander Center
Thu 04:22:03 AM 56.3500 -57.4000 246° West 450 518 40,000  Level Gander Center
Thu 04:23:03 AM 56.2667 -57.5833 231° Southwest 450 518 40,000  Level Gander Center
Thu 04:24:03 AM 56.2000 -57.7667 237° Southwest 450 518 40,000  Level Gander Center
Thu 04:25:03 AM 56.1500 -57.9833 248° West 460 529 40,000  Level Gander Center
Thu 04:26:03 AM 56.0833 -58.1667 237° Southwest 450 518 40,000  Level Gander Center
Thu 04:27:03 AM 56.0167 -58.3833 241° Southwest 450 518 40,000  Level Gander Center
Thu 04:28:03 AM 55.9500 -58.5667 237° Southwest 450 518 40,000  Level Gander Center
Thu 04:29:03 AM 55.9000 -58.7500 244° Southwest 450 518 40,000  Level Gander Center
Thu 04:30:03 AM 55.8333 -58.9333 237° Southwest 450 518 40,000  Level Gander Center
Thu 04:31:03 AM 55.7667 -59.1500 241° Southwest 450 518 40,000  Level Gander Center
Thu 04:32:03 AM 55.7000 -59.3333 237° Southwest 450 518 40,000  Level Gander Center
Thu 04:33:03 AM 55.6333 -59.5000 235° Southwest 450 518 40,000  Level Gander Center
Thu 04:34:03 AM 55.5667 -59.7167 242° Southwest 450 518 40,000  Level Gander Center
Thu 04:35:03 AM 55.5167 -59.9000 244° Southwest 450 518 40,000  Level Gander Center
Thu 04:36:03 AM 55.4333 -60.0833 231° Southwest 450 518 40,000  Level Gander Center
Thu 04:37:03 AM 55.3667 -60.2833 240° Southwest 450 518 40,000  Level Gander Center
Thu 04:38:03 AM 55.3000 -60.4667 237° Southwest 450 518 40,000  Level Gander Center
Thu 04:39:03 AM 55.2333 -60.6333 235° Southwest 450 518 40,000  Level Gander Center
Thu 04:40:03 AM 55.1667 -60.8167 238° Southwest 450 518 40,000  Level Gander Center
Thu 04:41:03 AM 55.1000 -61.0167 240° Southwest 450 518 40,000  Level Gander Center
Thu 04:42:03 AM 55.0333 -61.2000 238° Southwest 450 518 40,000  Level Gander Center
Thu 04:43:03 AM 54.9667 -61.4000 240° Southwest 450 518 40,000  Level Gander Center
Thu 04:44:03 AM 54.9000 -61.5667 235° Southwest 450 518 40,000  Level Gander Center
Thu 04:45:03 AM 54.8333 -61.7500 238° Southwest 450 518 40,000  Level Gander Center
Thu 04:46:03 AM 54.7667 -61.9167 235° Southwest 460 529 40,000  Level Gander Center
Thu 04:47:03 AM 54.6833 -62.1167 234° Southwest 460 529 40,000  Level Gander Center
Thu 04:48:03 AM 54.6167 -62.3000 238° Southwest 460 529 40,000  Level Gander Center
Thu 04:49:03 AM 54.5500 -62.4667 235° Southwest 450 518 40,000  Level Gander Center
Thu 04:50:03 AM 54.4667 -62.6667 234° Southwest 450 518 40,000  Level Gander Center
Thu 04:51:03 AM 54.4000 -62.8333 236° Southwest 460 529 40,000  Level Gander Center
Thu 04:52:03 AM 54.3333 -63.0333 240° Southwest 450 518 40,000  Level Gander Center
Thu 04:53:03 AM 54.2667 -63.2000 236° Southwest 450 518 40,000  Level Gander Center
Thu 04:54:03 AM 54.2000 -63.3667 236° Southwest 450 518 40,000  Level Gander Center
Thu 04:55:03 AM 54.1333 -63.5333 236° Southwest 450 518 40,000  Level Gander Center
Thu 04:56:03 AM 54.0500 -63.7333 235° Southwest 450 518 40,000  Level Gander Center
Thu 04:57:03 AM 53.9833 -63.9000 236° Southwest 450 518 40,000  Level Gander Center
Thu 04:58:03 AM 53.9167 -64.0667 236° Southwest 450 518 40,000  Level Gander Center
Thu 04:59:03 AM 53.8500 -64.2333 236° Southwest 450 518 40,000  Level Gander Center
Thu 05:00:03 AM 53.7667 -64.4000 230° Southwest 440 506 40,000  Level Gander Center
Thu 05:01:03 AM 53.7000 -64.5833 238° Southwest 440 506 40,000  Level Gander Center
Thu 05:02:03 AM 53.6333 -64.7500 236° Southwest 450 518 40,000  Level Gander Center
Thu 05:03:03 AM 53.5667 -64.9167 236° Southwest 440 506 40,000  Level Gander Center
Thu 05:04:03 AM 53.4833 -65.0833 230° Southwest 440 506 40,000  Level Gander Center
Thu 05:05:03 AM 53.4167 -65.2667 239° Southwest 440 506 40,000  Level Gander Center
Thu 05:06:03 AM 53.3500 -65.4333 236° Southwest 440 506 40,000  Level Gander Center
Thu 05:07:03 AM 53.2667 -65.5833 227° Southwest 440 506 40,000  Level Gander Center
Thu 05:08:03 AM 53.2000 -65.7500 236° Southwest 440 506 40,000  Level Gander Center
Thu 05:09:03 AM 53.1167 -65.9167 230° Southwest 440 506 40,000  Level Gander Center
Thu 05:10:03 AM 53.0500 -66.0667 234° Southwest 430 495 40,000  Level Gander Center
Thu 05:11:03 AM 52.9833 -66.2333 236° Southwest 430 495 40,000  Level Gander Center
Thu 05:12:03 AM 52.9000 -66.3833 227° Southwest 440 506 40,000  Level Gander Center
Thu 05:13:03 AM 52.8333 -66.5500 237° Southwest 430 495 40,000  Level Gander Center
Thu 05:14:03 AM 52.7500 -66.7333 233° Southwest 440 506 40,000  Level Gander Center
Thu 05:15:03 AM 52.6833 -66.8500 227° Southwest 430 495 40,000  Level Gander Center
Thu 05:16:03 AM 52.6000 -67.0333 233° Southwest 430 495 40,000  Level Gander Center
Thu 05:17:03 AM 52.5333 -67.2000 237° Southwest 440 506 40,000  Level Gander Center
Thu 05:18:03 AM 52.4500 -67.3500 228° Southwest 430 495 40,000  Level Gander Center
Thu 05:19:03 AM 52.3833 -67.5000 234° Southwest 430 495 40,000  Level Gander Center
Thu 05:20:03 AM 52.3000 -67.6667 231° Southwest 430 495 40,000  Level Gander Center
Thu 05:21:03 AM 52.2500 -67.8167 241° Southwest 430 495 40,000  Level Gander Center
Thu 05:22:03 AM 52.1667 -67.9667 228° Southwest 430 495 40,000  Level Gander Center
Thu 05:23:09 AM 52.0833 -68.1000 225° Southwest 430 495 40,000  Level Montreal Center
Thu 05:24:09 AM 52.0167 -68.2333 231° Southwest 430 495 40,000  Level Montreal Center
Thu 05:25:09 AM 51.9500 -68.3833 234° Southwest 420 483 40,000  Level Montreal Center
Thu 05:26:09 AM 51.8667 -68.5333 228° Southwest 430 495 40,000  Level Montreal Center
Thu 05:27:09 AM 51.7833 -68.6833 228° Southwest 440 506 40,000  Level Montreal Center
Thu 05:28:09 AM 51.7167 -68.8333 234° Southwest 430 495 40,000  Level Montreal Center
Thu 05:29:09 AM 51.6333 -68.9833 228° Southwest 420 483 40,000  Level Montreal Center
Thu 05:30:09 AM 51.5667 -69.1333 234° Southwest 420 483 40,000  Level Montreal Center
Thu 05:31:09 AM 51.4833 -69.2833 228° Southwest 420 483 40,000  Level Montreal Center
Thu 05:32:09 AM 51.4167 -69.4333 235° Southwest 420 483 40,000  Level Montreal Center
Thu 05:33:09 AM 51.3333 -69.5833 228° Southwest 430 495 40,000  Level Montreal Center
Thu 05:34:09 AM 51.2667 -69.7167 231° Southwest 420 483 40,000  Level Montreal Center
Thu 05:35:09 AM 51.2000 -69.8833 237° Southwest 420 483 40,000  Level Montreal Center
Thu 05:36:09 AM 51.1167 -70.0167 225° Southwest 420 483 40,000  Level Montreal Center
Thu 05:37:09 AM 51.0167 -70.1500 220° Southwest 430 495 40,000  Level Montreal Center
Thu 05:38:09 AM 50.9500 -70.3000 235° Southwest 430 495 40,000  Level Montreal Center
Thu 05:39:09 AM 50.8667 -70.4167 221° Southwest 430 495 40,000  Level Montreal Center
Thu 05:40:09 AM 50.7667 -70.5667 224° Southwest 430 495 40,000  Level Montreal Center
Thu 05:41:09 AM 50.7000 -70.7000 232° Southwest 430 495 40,000  Level Montreal Center
Thu 05:42:09 AM 50.6000 -70.8500 224° Southwest 430 495 40,000  Level Montreal Center
Thu 05:43:09 AM 50.5167 -70.9667 222° Southwest 420 483 40,000  Level Montreal Center
Thu 05:44:09 AM 50.4333 -71.1000 226° Southwest 420 483 40,000  Level Montreal Center
Thu 05:49:52 AM 49.9520 -71.8630 226° Southwest 432 497 40,000  Level FlightAware ADS-B
Thu 05:50:29 AM 49.9070 -71.9310 224° Southwest 432 497 40,000  Level FlightAware ADS-B
Thu 05:51:28 AM 49.8170 -72.0660 224° Southwest 430 495 40,000  Level FlightAware ADS-B
Thu 05:52:12 AM 49.7530 -72.1610 224° Southwest 429 494 40,000  Level FlightAware ADS-B
Thu 05:52:54 AM 49.6920 -72.2520 224° Southwest 429 494 40,000  Level FlightAware ADS-B
Thu 05:53:37 AM 49.6330 -72.3390 224° Southwest 426 490 40,000  Level FlightAware ADS-B
Thu 05:54:15 AM 49.5780 -72.4210 224° Southwest 425 489 40,000  Level FlightAware ADS-B
Thu 05:54:50 AM 49.5280 -72.4940 223° Southwest 425 489 40,000  Level FlightAware ADS-B
Thu 05:55:31 AM 49.4710 -72.5780 224° Southwest 425 489 40,000  Level FlightAware ADS-B
Thu 05:56:33 AM 49.3820 -72.7080 224° Southwest 426 490 40,000  Level FlightAware ADS-B
Thu 05:57:25 AM 49.3130 -72.8070 223° Southwest 426 490 40,000  Level FlightAware ADS-B
Thu 05:58:34 AM 49.2210 -72.9400 223° Southwest 427 491 40,000  Level FlightAware ADS-B
Thu 05:59:10 AM 49.1760 -73.0030 222° Southwest 427 491 40,000  Level FlightAware ADS-B
Thu 05:59:55 AM 49.2280 -72.9290 43° Northeast 427 491 40,000  Level FlightAware ADS-B
Thu 06:00:32 AM 49.1830 -72.9940 223° Southwest 427 491 40,000  Level FlightAware ADS-B
Thu 06:01:18 AM 49.1260 -73.0750 223° Southwest 427 491 40,000  Level FlightAware ADS-B
Thu 06:01:56 AM 49.0800 -73.1410 223° Southwest 427 491 40,000  Level FlightAware ADS-B
Thu 06:02:56 AM 48.8440 -73.4790 223° Southwest 419 482 40,000  Level FlightAware ADS-B
Thu 06:03:40 AM 48.7700 -73.5830 223° Southwest 420 483 40,000  Level FlightAware ADS-B
Thu 06:04:15 AM 48.7210 -73.6520 223° Southwest 423 487 40,000  Level FlightAware ADS-B
Thu 06:05:04 AM 48.6480 -73.7530 222° Southwest 424 488 40,000  Level FlightAware ADS-B
Thu 06:05:47 AM 48.5860 -73.8390 223° Southwest 426 490 40,000  Level FlightAware ADS-B
Thu 06:06:45 AM 48.5120 -73.9420 223° Southwest 425 489 40,000  Level FlightAware ADS-B
Thu 06:07:23 AM 48.4430 -74.0370 222° Southwest 425 489 40,000  Level FlightAware ADS-B
Thu 06:08:05 AM 48.3910 -74.1100 223° Southwest 426 490 40,000  Level FlightAware ADS-B
Thu 06:08:42 AM 48.3460 -74.1730 223° Southwest 426 490 40,000  Level FlightAware ADS-B
Thu 06:09:30 AM 48.2870 -74.2560 223° Southwest 426 490 40,000  Level FlightAware ADS-B
Thu 06:10:43 AM 48.1620 -74.4240 222° Southwest 422 486 40,000  Level FlightAware ADS-B
Thu 06:11:23 AM 48.1130 -74.4920 223° Southwest 422 486 40,000  Level FlightAware ADS-B
Thu 06:12:12 AM 48.0260 -74.6060 221° Southwest 431 496 40,000  Level FlightAware ADS-B
Thu 06:12:48 AM 47.9800 -74.6670 222° Southwest 431 496 40,000  Level FlightAware ADS-B
Thu 06:13:36 AM 47.9200 -74.7490 223° Southwest 431 496 40,000  Level FlightAware ADS-B
Thu 06:14:13 AM 47.8430 -74.8520 222° Southwest 421 484 40,000  Level FlightAware ADS-B
Thu 06:14:58 AM 47.7780 -74.9380 222° Southwest 421 484 40,000  Level FlightAware ADS-B
Thu 06:15:43 AM 47.7080 -75.0310 222° Southwest 420 483 40,000  Level FlightAware ADS-B
Thu 06:16:23 AM 47.6540 -75.1020 222° Southwest 419 482 40,000  Level FlightAware ADS-B
Thu 06:17:03 AM 47.5910 -75.1850 222° Southwest 418 481 40,000  Level FlightAware ADS-B
Thu 06:17:39 AM 47.5370 -75.2560 222° Southwest 419 482 40,000  Level FlightAware ADS-B
Thu 06:18:21 AM 47.4800 -75.3310 222° Southwest 426 490 40,000  Level FlightAware ADS-B
Thu 06:19:00 AM 47.4220 -75.4080 222° Southwest 426 490 40,000  Level FlightAware ADS-B
Thu 06:19:40 AM 47.3610 -75.4860 221° Southwest 427 491 40,000  Level FlightAware ADS-B
Thu 06:22:56 AM 47.1070 -75.8120 221° Southwest 427 491 40,000  Level FlightAware ADS-B
Thu 06:23:52 AM 47.0030 -75.9480 222° Southwest 427 491 40,000  Level FlightAware ADS-B
Thu 06:24:32 AM 46.9590 -76.0040 221° Southwest 428 493 40,000  Level FlightAware ADS-B
Thu 06:25:19 AM 46.8540 -76.1370 221° Southwest 426 490 40,000  Level FlightAware ADS-B
Thu 06:26:17 AM 46.7670 -76.2470 221° Southwest 426 490 40,000  Level FlightAware ADS-B
Thu 06:27:01 AM 46.7060 -76.3240 221° Southwest 426 490 40,000  Level FlightAware ADS-B
Thu 06:27:41 AM 46.6460 -76.4000 221° Southwest 426 490 40,000  Level FlightAware ADS-B
Thu 06:28:16 AM 46.5960 -76.4620 220° Southwest 426 490 40,000  Level FlightAware ADS-B
Thu 06:29:02 AM 46.5210 -76.5560 221° Southwest 431 496 40,000  Level FlightAware ADS-B
Thu 06:30:08 AM 46.4210 -76.6800 221° Southwest 434 499 40,000  Level FlightAware ADS-B
Thu 06:30:52 AM 46.3550 -76.7620 221° Southwest 431 496 40,000  Level FlightAware ADS-B
Thu 06:31:41 AM 46.2840 -76.8490 220° Southwest 431 496 40,000  Level FlightAware ADS-B
Thu 06:32:21 AM 46.2230 -76.9240 220° Southwest 429 494 40,000  Level FlightAware ADS-B
Thu 06:33:06 AM 46.1600 -77.0020 221° Southwest 429 494 40,000  Level FlightAware ADS-B
Thu 06:33:46 AM 46.0930 -77.0830 220° Southwest 428 493 40,000  Level FlightAware ADS-B
Thu 06:34:26 AM 46.0340 -77.1560 221° Southwest 429 494 40,000  Level FlightAware ADS-B
Thu 06:35:11 AM 45.9650 -77.2400 220° Southwest 429 494 40,000  Level FlightAware ADS-B
Thu 06:35:51 AM 45.9060 -77.3100 220° Southwest 430 495 40,000  Level FlightAware ADS-B
Thu 06:36:26 AM 45.8510 -77.3770 220° Southwest 431 496 40,000  Level FlightAware ADS-B
Thu 06:37:11 AM 45.7820 -77.4600 220° Southwest 431 496 40,000  Level FlightAware ADS-B
Thu 06:37:51 AM 45.7200 -77.5340 220° Southwest 431 496 40,000  Level FlightAware ADS-B
Thu 06:38:26 AM 45.6670 -77.5980 220° Southwest 431 496 40,000  Level FlightAware ADS-B
Thu 06:39:06 AM 45.6110 -77.6620 219° Southwest 433 498 40,000  Level FlightAware ADS-B
Thu 06:39:51 AM 45.5320 -77.7510 218° Southwest 435 501 40,000  Level FlightAware ADS-B
Thu 06:40:31 AM 45.4700 -77.8210 218° Southwest 437 503 40,000  Level FlightAware ADS-B
Thu 06:41:11 AM 45.4090 -77.8890 218° Southwest 440 506 40,000  Level FlightAware ADS-B
Thu 06:41:56 AM 45.3360 -77.9710 218° Southwest 443 510 40,000  Level FlightAware ADS-B
Thu 06:42:36 AM 45.2740 -78.0410 218° Southwest 446 513 40,000  Level FlightAware ADS-B
Thu 06:43:26 AM 45.1880 -78.1370 218° Southwest 447 514 40,000  Level FlightAware ADS-B
Thu 06:44:06 AM 45.1240 -78.2080 218° Southwest 447 514 40,000  Level FlightAware ADS-B
Thu 06:44:51 AM 45.0510 -78.2890 218° Southwest 445 512 40,000  Level FlightAware ADS-B
Thu 06:45:26 AM 44.9940 -78.3520 218° Southwest 445 512 40,000  Level FlightAware ADS-B
Thu 06:46:06 AM 44.9280 -78.4240 218° Southwest 445 512 40,000  Level FlightAware ADS-B
Thu 06:46:49 AM 44.8580 -78.5010 218° Southwest 446 513 40,000  Level FlightAware ADS-B
Thu 06:47:31 AM 44.7910 -78.5750 218° Southwest 446 513 40,000  Level FlightAware ADS-B
Thu 06:48:11 AM 44.7290 -78.6420 218° Southwest 447 514 40,000 -424 Level FlightAware ADS-B
Thu 06:48:56 AM 44.6510 -78.7280 218° Southwest 449 517 39,400 -988 Descending FlightAware ADS-B
Thu 06:49:36 AM 44.5850 -78.7990 217° Southwest 449 517 38,600 -1,257 Descending FlightAware ADS-B
Thu 06:50:41 AM 44.4810 -78.9110 218° Southwest 432 497 37,200 -1,314 Descending FlightAware ADS-B
Thu 06:51:21 AM 44.4160 -78.9810 218° Southwest 429 494 36,300 -1,341 Descending FlightAware ADS-B
Thu 06:52:06 AM 44.3450 -79.0570 217° Southwest 427 491 35,300 -1,275 Descending FlightAware ADS-B
Thu 06:52:41 AM 44.2930 -79.1140 218° Southwest 425 489 34,600 -1,040 Descending FlightAware ADS-B
Thu 06:53:21 AM 44.2290 -79.1820 217° Southwest 420 483 34,000 -450 Descending FlightAware ADS-B
Thu 06:54:01 AM 44.1700 -79.2510 220° Southwest 419 482 34,000  Level FlightAware ADS-B
Thu 06:54:46 AM 44.1030 -79.3280 220° Southwest 421 484 34,000  Level FlightAware ADS-B
Thu 06:55:26 AM 44.0410 -79.3990 219° Southwest 421 484 34,000  Level FlightAware ADS-B
Thu 06:56:06 AM 43.9820 -79.4670 220° Southwest 421 484 34,000  Level FlightAware ADS-B
Thu 06:56:51 AM 43.9180 -79.5410 220° Southwest 420 483 34,000  Level FlightAware ADS-B
Thu 06:57:26 AM 43.8630 -79.6030 219° Southwest 421 484 34,000  Level FlightAware ADS-B
Thu 06:58:11 AM 43.7940 -79.6820 220° Southwest 420 483 34,000  Level FlightAware ADS-B
Thu 06:58:51 AM 43.7340 -79.7490 219° Southwest 419 482 34,000 -282 Level FlightAware ADS-B
Thu 06:59:36 AM 43.6670 -79.8250 219° Southwest 417 480 33,600 -733 Descending FlightAware ADS-B
Thu 07:00:21 AM 43.6010 -79.9000 219° Southwest 422 486 32,900 -960 Descending FlightAware ADS-B
Thu 07:01:16 AM 43.5140 -79.9970 219° Southwest 429 494 32,000 -947 Descending FlightAware ADS-B
Thu 07:01:56 AM 43.4570 -80.0610 219° Southwest 432 497 31,400 -988 Descending FlightAware ADS-B
Thu 07:02:41 AM 43.3850 -80.1420 219° Southwest 435 501 30,600 -1,059 Descending FlightAware ADS-B
Thu 07:03:21 AM 43.3200 -80.2140 219° Southwest 432 497 29,900 -988 Descending FlightAware ADS-B
Thu 07:04:06 AM 43.2520 -80.2900 219° Southwest 423 487 29,200 -1,271 Descending FlightAware ADS-B
Thu 07:04:46 AM 43.1900 -80.3580 219° Southwest 425 489 28,100 -1,694 Descending FlightAware ADS-B
Thu 07:05:31 AM 43.1220 -80.4340 219° Southwest 413 475 26,800 -1,694 Descending FlightAware ADS-B
Thu 07:06:11 AM 43.0630 -80.4990 219° Southwest 402 463 25,700 -1,553 Descending FlightAware ADS-B
Thu 07:06:56 AM 43.0010 -80.5670 219° Southwest 394 453 24,600 -1,341 Descending FlightAware ADS-B
Thu 07:07:36 AM 42.9440 -80.6290 219° Southwest 383 441 23,800 -1,050 Descending FlightAware ADS-B
Thu 07:08:16 AM 42.8920 -80.6940 222° Southwest 375 432 23,200 -764 Descending FlightAware ADS-B
Thu 07:08:31 AM 42.8830 -80.7250 248° West 372 428 23,100 -200 Descending FlightAware ADS-B
Thu 07:09:16 AM 42.8620 -80.8340 255° West 413 475 23,000 -71 Descending FlightAware ADS-B
Thu 07:09:56 AM 42.8420 -80.9350 255° West 414 476 23,000  Level FlightAware ADS-B
Thu 07:10:36 AM 42.8230 -81.0290 255° West 413 475 23,000  Level FlightAware ADS-B
Thu 07:11:21 AM 42.7990 -81.1520 255° West 414 476 23,000 -250 Level FlightAware ADS-B
Thu 07:12:12 AM 42.7760 -81.2660 255° West 414 476 22,600 -742 Descending FlightAware ADS-B
Thu 07:12:58 AM 42.7520 -81.3820 254° West 406 467 21,800 -975 Descending FlightAware ADS-B
Thu 07:13:32 AM 42.7360 -81.4630 255° West 400 460 21,300 -975 Descending FlightAware ADS-B
Thu 07:14:18 AM 42.7130 -81.5750 254° West 398 458 20,500 -1,023 Descending FlightAware ADS-B
Thu 07:15:00 AM 42.6920 -81.6760 254° West 392 451 19,800 -987 Descending FlightAware ADS-B
Thu 07:15:37 AM 42.6740 -81.7610 254° West 383 441 19,200 -1,012 Descending FlightAware ADS-B
Thu 07:16:23 AM 42.6510 -81.8720 254° West 383 441 18,400 -1,012 Descending FlightAware ADS-B
Thu 07:17:00 AM 42.6340 -81.9560 255° West 379 436 17,800 -1,000 Descending FlightAware ADS-B
Thu 07:17:47 AM 42.6120 -82.0610 254° West 375 432 17,000 -1,050 Descending FlightAware ADS-B
Thu 07:18:20 AM 42.5960 -82.1370 254° West 374 430 16,400 -1,357 Descending FlightAware ADS-B
Thu 07:19:11 AM 42.5720 -82.2490 254° West 362 417 15,100 -1,295 Descending FlightAware ADS-B
Thu 07:19:48 AM 42.5540 -82.3340 254° West 328 377 14,500 -400 Descending FlightAware ADS-B
Thu 07:20:56 AM 42.5310 -82.4430 254° West 324 373 14,400 -763 Descending FlightAware ADS-B
Thu 07:22:41 AM 42.4980 -82.5990 254° West 294 338 12,300 -1,565 Descending FlightAware ADS-B
Thu 07:24:23 AM 42.4290 -82.7840 243° Southwest 275 316 9,000 -1,922 Descending FlightAware ADS-B
Thu 07:24:49 AM 42.4220 -82.8360 260° West 275 316 8,200 -2,038 Descending FlightAware ADS-B
Thu 07:25:16 AM 42.4160 -82.8930 262° West 272 313 7,200 -2,353 Descending FlightAware ADS-B
Thu 07:25:40 AM 42.4110 -82.9360 261° West 269 310 6,200 -1,615 Descending FlightAware ADS-B
Thu 07:26:08 AM 42.4060 -82.9800 261° West 263 303 5,800 -444 Descending FlightAware ADS-B
Thu 07:26:34 AM 42.4010 -83.0230 261° West 239 275 5,800  Level FlightAware ADS-B
Thu 07:27:06 AM 42.3960 -83.0680 261° West 228 262 5,800  Level FlightAware ADS-B
Thu 07:27:24 AM 42.3940 -83.0930 264° West 227 261 5,800 -409 Level FlightAware ADS-B
Thu 07:27:50 AM 42.3900 -83.1310 262° West 228 262 5,500 -964 Descending FlightAware ADS-B
Thu 07:28:20 AM 42.3840 -83.1730 259° West 227 261 4,900 -1,435 Descending FlightAware ADS-B
Thu 07:28:36 AM 42.3760 -83.1920 240° Southwest 228 262 4,400 -2,000 Descending FlightAware ADS-B
Thu 07:29:02 AM 42.3590 -83.2210 232° Southwest 224 258 3,500 -1,857 Descending FlightAware ADS-B
Thu 07:29:18 AM 42.3480 -83.2380 229° Southwest 217 250 3,100 -1,286 Descending FlightAware ADS-B
Thu 07:29:30 AM 42.3380 -83.2470 214° Southwest 217 250 2,900 -1,071 Descending FlightAware ADS-B
Thu 07:29:46 AM 42.3240 -83.2570 208° Southwest 216 249 2,600 -1,000 Descending FlightAware ADS-B
Thu 07:30:12 AM 42.3020 -83.2730 208° Southwest 197 227 2,200 -889 Descending FlightAware ADS-B
Thu 07:30:40 AM 42.2810 -83.2890 209° Southwest 174 200 1,800 -1,000 Descending FlightAware ADS-B
Thu 07:30:54 AM 42.2710 -83.2960 207° Southwest 165 190 1,500 -818 Descending FlightAware ADS-B
Thu 07:31:24 AM 42.2520 -83.3100 209° Southwest 144 166 1,200 -724 Descending FlightAware ADS-B
Thu 07:31:52 AM 42.2370 -83.3210 209° Southwest 133 153 800 -789 Descending FlightAware ADS-B
Thu 07:32:02 AM 42.2310 -83.3260 212° Southwest 133 153 700 -667 Descending FlightAware ADS-B
Thu 07:32:28 AM 42.2180 -83.3350 207° Southwest 132 152 400 -692 Descending FlightAware ADS-B
Thu 07:32:52 AM 42.2070 -83.3440 211° Southwest 72 83 -1,000 Descending FlightAware ADS-B
Thu 07:33:34 AM 42.2020 -83.3490 217° Southwest 33 38  Level FlightAware ADS-B
Thu 07:35:38 AM 42.2100 -83.3440 25° Northeast 30 35  Level FlightAware ADS-B
Thu 07:36:04 AM 42.2130 -83.3420 26° Northeast 30 35  Level FlightAware ADS-B

Login

Don't have an account? Register now (free) for customized features, flight alerts, and more!